<?xml version="1.0" encoding="UTF-8" standalone="no" ?>
<gpx xmlns="http://www.topografix.com/GPX/1/1" xmlns:xsi="http://www.w3.org/2001/XMLSchema-instance" xsi:schemaLocation="http://www.topografix.com/GPX/1/1 http://www.topografix.com/GPX/1/1/gpx.xsd" version="1.1" creator="VisuGPX - https://www.visugpx.com">
  <metadata>
    <name>Liebevillers</name>
  </metadata>
  <trk>
    <name><![CDATA[Liebevillers]]></name>
    <extensions>
      <line xmlns="http://www.topografix.com/GPX/gpx_style/0/2">
        <color>0000FF</color>
        <width>4</width>
      </line>
    </extensions>
    <trkseg>
      <trkpt lat="47.51854" lon="6.77494">
        <ele>388.4</ele>
        <time>2022-03-05T07:24:30.000Z</time>
      </trkpt>
      <trkpt lat="47.51733" lon="6.77475">
        <ele>391.5</ele>
        <time>2022-03-05T07:25:06.813Z</time>
      </trkpt>
      <trkpt lat="47.51715" lon="6.77558">
        <ele>392.4</ele>
        <time>2022-03-05T07:25:22.691Z</time>
      </trkpt>
      <trkpt lat="47.51708" lon="6.77756">
        <ele>381.9</ele>
        <time>2022-03-05T07:25:36.387Z</time>
      </trkpt>
      <trkpt lat="47.51586" lon="6.77751">
        <ele>368.6</ele>
        <time>2022-03-05T07:25:48.869Z</time>
      </trkpt>
      <trkpt lat="47.51589" lon="6.77726">
        <ele>371.1</ele>
        <time>2022-03-05T07:26:04.211Z</time>
      </trkpt>
      <trkpt lat="47.51401" lon="6.77743">
        <ele>347.9</ele>
        <time>2022-03-05T07:26:23.475Z</time>
      </trkpt>
      <trkpt lat="47.513" lon="6.77769">
        <ele>334.5</ele>
        <time>2022-03-05T07:26:33.960Z</time>
      </trkpt>
      <trkpt lat="47.51165" lon="6.77791">
        <ele>322.9</ele>
        <time>2022-03-05T07:26:47.851Z</time>
      </trkpt>
      <trkpt lat="47.51065" lon="6.77774">
        <ele>317.3</ele>
        <time>2022-03-05T07:26:58.142Z</time>
      </trkpt>
      <trkpt lat="47.50993" lon="6.77696">
        <ele>315</ele>
        <time>2022-03-05T07:27:10.256Z</time>
      </trkpt>
      <trkpt lat="47.50899" lon="6.77713">
        <ele>313.7</ele>
        <time>2022-03-05T07:27:25.075Z</time>
      </trkpt>
      <trkpt lat="47.5081" lon="6.77598">
        <ele>313.3</ele>
        <time>2022-03-05T07:27:51.123Z</time>
      </trkpt>
      <trkpt lat="47.50726" lon="6.77529">
        <ele>314</ele>
        <time>2022-03-05T07:28:14.997Z</time>
      </trkpt>
      <trkpt lat="47.50644" lon="6.77522">
        <ele>314</ele>
        <time>2022-03-05T07:28:34.048Z</time>
      </trkpt>
      <trkpt lat="47.50589" lon="6.77531">
        <ele>314.2</ele>
        <time>2022-03-05T07:28:47.322Z</time>
      </trkpt>
      <trkpt lat="47.50589" lon="6.77553">
        <ele>314</ele>
        <time>2022-03-05T07:28:49.655Z</time>
      </trkpt>
      <trkpt lat="47.50563" lon="6.77559">
        <ele>313.2</ele>
        <time>2022-03-05T07:28:53.055Z</time>
      </trkpt>
      <trkpt lat="47.50547" lon="6.77507">
        <ele>314.1</ele>
        <time>2022-03-05T07:29:04.439Z</time>
      </trkpt>
      <trkpt lat="47.50412" lon="6.77424">
        <ele>313.2</ele>
        <time>2022-03-05T07:29:35.421Z</time>
      </trkpt>
      <trkpt lat="47.50235" lon="6.77271">
        <ele>313.3</ele>
        <time>2022-03-05T07:30:23.175Z</time>
      </trkpt>
      <trkpt lat="47.50157" lon="6.77215">
        <ele>313.5</ele>
        <time>2022-03-05T07:30:43.716Z</time>
      </trkpt>
      <trkpt lat="47.50099" lon="6.77206">
        <ele>313.9</ele>
        <time>2022-03-05T07:30:58.149Z</time>
      </trkpt>
      <trkpt lat="47.49975" lon="6.77245">
        <ele>314.4</ele>
        <time>2022-03-05T07:31:28.653Z</time>
      </trkpt>
      <trkpt lat="47.49894" lon="6.77293">
        <ele>313.8</ele>
        <time>2022-03-05T07:31:46.961Z</time>
      </trkpt>
      <trkpt lat="47.49804" lon="6.77304">
        <ele>314.3</ele>
        <time>2022-03-05T07:32:09.025Z</time>
      </trkpt>
      <trkpt lat="47.49738" lon="6.77319">
        <ele>313</ele>
        <time>2022-03-05T07:32:18.767Z</time>
      </trkpt>
      <trkpt lat="47.4953" lon="6.77355">
        <ele>312</ele>
        <time>2022-03-05T07:33:04.027Z</time>
      </trkpt>
      <trkpt lat="47.4937" lon="6.77353">
        <ele>312</ele>
        <time>2022-03-05T07:33:41.138Z</time>
      </trkpt>
      <trkpt lat="47.49329" lon="6.77336">
        <ele>312</ele>
        <time>2022-03-05T07:33:51.014Z</time>
      </trkpt>
      <trkpt lat="47.49255" lon="6.77334">
        <ele>312.8</ele>
        <time>2022-03-05T07:34:10.067Z</time>
      </trkpt>
      <trkpt lat="47.4917" lon="6.77334">
        <ele>312.1</ele>
        <time>2022-03-05T07:34:24.362Z</time>
      </trkpt>
      <trkpt lat="47.4896" lon="6.77326">
        <ele>311.3</ele>
        <time>2022-03-05T07:35:10.399Z</time>
      </trkpt>
      <trkpt lat="47.48845" lon="6.77276">
        <ele>311.8</ele>
        <time>2022-03-05T07:35:39.304Z</time>
      </trkpt>
      <trkpt lat="47.4868" lon="6.77137">
        <ele>311.5</ele>
        <time>2022-03-05T07:36:22.299Z</time>
      </trkpt>
      <trkpt lat="47.48623" lon="6.77079">
        <ele>311.6</ele>
        <time>2022-03-05T07:36:38.559Z</time>
      </trkpt>
      <trkpt lat="47.48447" lon="6.76968">
        <ele>312.3</ele>
        <time>2022-03-05T07:37:24.471Z</time>
      </trkpt>
      <trkpt lat="47.48299" lon="6.76869">
        <ele>311.4</ele>
        <time>2022-03-05T07:37:59.195Z</time>
      </trkpt>
      <trkpt lat="47.48244" lon="6.76812">
        <ele>311.9</ele>
        <time>2022-03-05T07:38:15.909Z</time>
      </trkpt>
      <trkpt lat="47.48168" lon="6.76754">
        <ele>311.6</ele>
        <time>2022-03-05T07:38:34.731Z</time>
      </trkpt>
      <trkpt lat="47.4811" lon="6.76643">
        <ele>311.8</ele>
        <time>2022-03-05T07:38:57.157Z</time>
      </trkpt>
      <trkpt lat="47.48094" lon="6.76604">
        <ele>309.3</ele>
        <time>2022-03-05T07:39:00.311Z</time>
      </trkpt>
      <trkpt lat="47.48123" lon="6.76544">
        <ele>312.7</ele>
        <time>2022-03-05T07:39:23.267Z</time>
      </trkpt>
      <trkpt lat="47.48112" lon="6.76516">
        <ele>313.4</ele>
        <time>2022-03-05T07:39:30.447Z</time>
      </trkpt>
      <trkpt lat="47.48035" lon="6.76576">
        <ele>312.7</ele>
        <time>2022-03-05T07:39:45.121Z</time>
      </trkpt>
      <trkpt lat="47.47951" lon="6.76626">
        <ele>311.9</ele>
        <time>2022-03-05T07:40:00.225Z</time>
      </trkpt>
      <trkpt lat="47.47905" lon="6.76656">
        <ele>311.5</ele>
        <time>2022-03-05T07:40:08.712Z</time>
      </trkpt>
      <trkpt lat="47.47824" lon="6.76819">
        <ele>312.2</ele>
        <time>2022-03-05T07:40:41.987Z</time>
      </trkpt>
      <trkpt lat="47.47743" lon="6.76793">
        <ele>313.6</ele>
        <time>2022-03-05T07:41:04.730Z</time>
      </trkpt>
      <trkpt lat="47.47576" lon="6.76686">
        <ele>312</ele>
        <time>2022-03-05T07:41:35.106Z</time>
      </trkpt>
      <trkpt lat="47.47447" lon="6.76505">
        <ele>312.8</ele>
        <time>2022-03-05T07:42:18.114Z</time>
      </trkpt>
      <trkpt lat="47.47428" lon="6.76499">
        <ele>313</ele>
        <time>2022-03-05T07:42:23.090Z</time>
      </trkpt>
      <trkpt lat="47.47095" lon="6.76557">
        <ele>322.7</ele>
        <time>2022-03-05T07:44:08.895Z</time>
      </trkpt>
      <trkpt lat="47.47003" lon="6.7654">
        <ele>325.7</ele>
        <time>2022-03-05T07:44:39.458Z</time>
      </trkpt>
      <trkpt lat="47.46903" lon="6.76475">
        <ele>328.1</ele>
        <time>2022-03-05T07:45:11.175Z</time>
      </trkpt>
      <trkpt lat="47.46797" lon="6.7642">
        <ele>331.7</ele>
        <time>2022-03-05T07:45:48.056Z</time>
      </trkpt>
      <trkpt lat="47.46616" lon="6.76516">
        <ele>338.9</ele>
        <time>2022-03-05T07:46:55.935Z</time>
      </trkpt>
      <trkpt lat="47.4652" lon="6.76546">
        <ele>344.7</ele>
        <time>2022-03-05T07:47:38.254Z</time>
      </trkpt>
      <trkpt lat="47.46404" lon="6.76523">
        <ele>349.3</ele>
        <time>2022-03-05T07:48:20.670Z</time>
      </trkpt>
      <trkpt lat="47.4634" lon="6.76531">
        <ele>346.5</ele>
        <time>2022-03-05T07:48:27.963Z</time>
      </trkpt>
      <trkpt lat="47.46233" lon="6.76617">
        <ele>357.9</ele>
        <time>2022-03-05T07:49:37.110Z</time>
      </trkpt>
      <trkpt lat="47.46119" lon="6.76685">
        <ele>358.3</ele>
        <time>2022-03-05T07:50:06.496Z</time>
      </trkpt>
      <trkpt lat="47.45898" lon="6.76734">
        <ele>366.5</ele>
        <time>2022-03-05T07:51:24.568Z</time>
      </trkpt>
      <trkpt lat="47.45703" lon="6.76728">
        <ele>375.8</ele>
        <time>2022-03-05T07:52:42.485Z</time>
      </trkpt>
      <trkpt lat="47.4565" lon="6.76734">
        <ele>378.2</ele>
        <time>2022-03-05T07:53:03.379Z</time>
      </trkpt>
      <trkpt lat="47.45389" lon="6.76796">
        <ele>386.7</ele>
        <time>2022-03-05T07:54:30.288Z</time>
      </trkpt>
      <trkpt lat="47.45243" lon="6.76754">
        <ele>387.2</ele>
        <time>2022-03-05T07:55:05.882Z</time>
      </trkpt>
      <trkpt lat="47.45201" lon="6.76808">
        <ele>386.2</ele>
        <time>2022-03-05T07:55:14.147Z</time>
      </trkpt>
      <trkpt lat="47.45128" lon="6.76969">
        <ele>377.4</ele>
        <time>2022-03-05T07:55:27.554Z</time>
      </trkpt>
      <trkpt lat="47.45072" lon="6.77113">
        <ele>373.6</ele>
        <time>2022-03-05T07:55:41.566Z</time>
      </trkpt>
      <trkpt lat="47.4505" lon="6.77254">
        <ele>370.7</ele>
        <time>2022-03-05T07:55:54.312Z</time>
      </trkpt>
      <trkpt lat="47.45011" lon="6.77198">
        <ele>373.6</ele>
        <time>2022-03-05T07:56:16.853Z</time>
      </trkpt>
      <trkpt lat="47.4498" lon="6.77158">
        <ele>378.6</ele>
        <time>2022-03-05T07:56:48.256Z</time>
      </trkpt>
      <trkpt lat="47.44803" lon="6.7705">
        <ele>400.5</ele>
        <time>2022-03-05T07:59:02.558Z</time>
      </trkpt>
      <trkpt lat="47.44632" lon="6.76849">
        <ele>417.4</ele>
        <time>2022-03-05T08:00:50.504Z</time>
      </trkpt>
      <trkpt lat="47.44602" lon="6.76845">
        <ele>417.9</ele>
        <time>2022-03-05T08:00:58.743Z</time>
      </trkpt>
      <trkpt lat="47.44584" lon="6.76884">
        <ele>417.2</ele>
        <time>2022-03-05T08:01:03.271Z</time>
      </trkpt>
      <trkpt lat="47.44529" lon="6.76922">
        <ele>419.7</ele>
        <time>2022-03-05T08:01:25.879Z</time>
      </trkpt>
      <trkpt lat="47.44462" lon="6.76963">
        <ele>422.4</ele>
        <time>2022-03-05T08:01:51.403Z</time>
      </trkpt>
      <trkpt lat="47.44404" lon="6.7697">
        <ele>425.1</ele>
        <time>2022-03-05T08:02:14.459Z</time>
      </trkpt>
      <trkpt lat="47.44317" lon="6.76899">
        <ele>434.8</ele>
        <time>2022-03-05T08:03:13.033Z</time>
      </trkpt>
      <trkpt lat="47.44264" lon="6.76902">
        <ele>437.8</ele>
        <time>2022-03-05T08:03:35.510Z</time>
      </trkpt>
      <trkpt lat="47.44233" lon="6.76882">
        <ele>440.5</ele>
        <time>2022-03-05T08:03:52.559Z</time>
      </trkpt>
      <trkpt lat="47.44088" lon="6.76751">
        <ele>450</ele>
        <time>2022-03-05T08:05:04.248Z</time>
      </trkpt>
      <trkpt lat="47.44011" lon="6.76657">
        <ele>453.6</ele>
        <time>2022-03-05T08:05:38.828Z</time>
      </trkpt>
      <trkpt lat="47.44005" lon="6.76653">
        <ele>453.8</ele>
        <time>2022-03-05T08:05:40.943Z</time>
      </trkpt>
      <trkpt lat="47.43966" lon="6.7661">
        <ele>455.3</ele>
        <time>2022-03-05T08:05:56.668Z</time>
      </trkpt>
      <trkpt lat="47.43876" lon="6.76548">
        <ele>458.6</ele>
        <time>2022-03-05T08:06:29.776Z</time>
      </trkpt>
      <trkpt lat="47.43823" lon="6.76481">
        <ele>459.6</ele>
        <time>2022-03-05T08:06:48.396Z</time>
      </trkpt>
      <trkpt lat="47.43681" lon="6.76451">
        <ele>462.4</ele>
        <time>2022-03-05T08:07:28.909Z</time>
      </trkpt>
      <trkpt lat="47.43652" lon="6.76412">
        <ele>465.6</ele>
        <time>2022-03-05T08:07:48.964Z</time>
      </trkpt>
      <trkpt lat="47.43626" lon="6.76268">
        <ele>466.7</ele>
        <time>2022-03-05T08:08:14.943Z</time>
      </trkpt>
      <trkpt lat="47.43545" lon="6.76139">
        <ele>473.2</ele>
        <time>2022-03-05T08:09:04.727Z</time>
      </trkpt>
      <trkpt lat="47.43529" lon="6.76047">
        <ele>472.6</ele>
        <time>2022-03-05T08:09:15.374Z</time>
      </trkpt>
      <trkpt lat="47.4349" lon="6.75975">
        <ele>475.1</ele>
        <time>2022-03-05T08:09:38.236Z</time>
      </trkpt>
      <trkpt lat="47.43377" lon="6.75864">
        <ele>487.8</ele>
        <time>2022-03-05T08:10:55.269Z</time>
      </trkpt>
      <trkpt lat="47.43243" lon="6.75748">
        <ele>499.7</ele>
        <time>2022-03-05T08:12:11.559Z</time>
      </trkpt>
      <trkpt lat="47.43216" lon="6.75736">
        <ele>502.2</ele>
        <time>2022-03-05T08:12:26.873Z</time>
      </trkpt>
      <trkpt lat="47.43102" lon="6.75664">
        <ele>509.9</ele>
        <time>2022-03-05T08:13:21.484Z</time>
      </trkpt>
      <trkpt lat="47.42975" lon="6.75597">
        <ele>515.8</ele>
        <time>2022-03-05T08:14:13.677Z</time>
      </trkpt>
      <trkpt lat="47.4293" lon="6.7555">
        <ele>518.1</ele>
        <time>2022-03-05T08:14:34.368Z</time>
      </trkpt>
      <trkpt lat="47.42853" lon="6.7553">
        <ele>523.5</ele>
        <time>2022-03-05T08:15:10.602Z</time>
      </trkpt>
      <trkpt lat="47.42784" lon="6.7552">
        <ele>524.4</ele>
        <time>2022-03-05T08:15:28.853Z</time>
      </trkpt>
      <trkpt lat="47.42724" lon="6.75548">
        <ele>521.9</ele>
        <time>2022-03-05T08:15:36.260Z</time>
      </trkpt>
      <trkpt lat="47.42663" lon="6.7553">
        <ele>516.7</ele>
        <time>2022-03-05T08:15:42.622Z</time>
      </trkpt>
      <trkpt lat="47.42621" lon="6.75494">
        <ele>514.6</ele>
        <time>2022-03-05T08:15:48.153Z</time>
      </trkpt>
      <trkpt lat="47.4254" lon="6.7547">
        <ele>513.5</ele>
        <time>2022-03-05T08:16:01.148Z</time>
      </trkpt>
      <trkpt lat="47.42469" lon="6.75466">
        <ele>515.6</ele>
        <time>2022-03-05T08:16:23.745Z</time>
      </trkpt>
      <trkpt lat="47.42423" lon="6.75474">
        <ele>519.6</ele>
        <time>2022-03-05T08:16:48.405Z</time>
      </trkpt>
      <trkpt lat="47.42385" lon="6.75468">
        <ele>523.3</ele>
        <time>2022-03-05T08:17:10.761Z</time>
      </trkpt>
      <trkpt lat="47.42276" lon="6.75536">
        <ele>534.6</ele>
        <time>2022-03-05T08:18:19.131Z</time>
      </trkpt>
      <trkpt lat="47.4224" lon="6.75502">
        <ele>537.6</ele>
        <time>2022-03-05T08:18:39.103Z</time>
      </trkpt>
      <trkpt lat="47.42102" lon="6.75468">
        <ele>547.6</ele>
        <time>2022-03-05T08:19:45.134Z</time>
      </trkpt>
      <trkpt lat="47.42063" lon="6.75406">
        <ele>548.4</ele>
        <time>2022-03-05T08:20:00.368Z</time>
      </trkpt>
      <trkpt lat="47.42005" lon="6.75277">
        <ele>547.8</ele>
        <time>2022-03-05T08:20:22.714Z</time>
      </trkpt>
      <trkpt lat="47.41948" lon="6.75213">
        <ele>547</ele>
        <time>2022-03-05T08:20:34.290Z</time>
      </trkpt>
      <trkpt lat="47.41843" lon="6.7514">
        <ele>546.3</ele>
        <time>2022-03-05T08:20:58.927Z</time>
      </trkpt>
      <trkpt lat="47.41774" lon="6.75061">
        <ele>547</ele>
        <time>2022-03-05T08:21:20.776Z</time>
      </trkpt>
      <trkpt lat="47.41742" lon="6.75065">
        <ele>546.5</ele>
        <time>2022-03-05T08:21:25.687Z</time>
      </trkpt>
      <trkpt lat="47.41668" lon="6.75123">
        <ele>541.1</ele>
        <time>2022-03-05T08:21:33.668Z</time>
      </trkpt>
      <trkpt lat="47.41528" lon="6.75168">
        <ele>538</ele>
        <time>2022-03-05T08:21:54.048Z</time>
      </trkpt>
      <trkpt lat="47.41275" lon="6.75191">
        <ele>555.2</ele>
        <time>2022-03-05T08:23:50.469Z</time>
      </trkpt>
      <trkpt lat="47.41224" lon="6.75217">
        <ele>558.9</ele>
        <time>2022-03-05T08:24:15.382Z</time>
      </trkpt>
      <trkpt lat="47.41143" lon="6.75271">
        <ele>559.1</ele>
        <time>2022-03-05T08:24:36.426Z</time>
      </trkpt>
      <trkpt lat="47.41046" lon="6.75419">
        <ele>552.2</ele>
        <time>2022-03-05T08:24:51.445Z</time>
      </trkpt>
      <trkpt lat="47.40868" lon="6.75633">
        <ele>534.5</ele>
        <time>2022-03-05T08:25:14.915Z</time>
      </trkpt>
      <trkpt lat="47.40788" lon="6.75694">
        <ele>530.7</ele>
        <time>2022-03-05T08:25:25.269Z</time>
      </trkpt>
      <trkpt lat="47.40731" lon="6.75762">
        <ele>530.8</ele>
        <time>2022-03-05T08:25:42.476Z</time>
      </trkpt>
      <trkpt lat="47.40667" lon="6.75764">
        <ele>529.5</ele>
        <time>2022-03-05T08:25:51.723Z</time>
      </trkpt>
      <trkpt lat="47.40579" lon="6.75764">
        <ele>528.8</ele>
        <time>2022-03-05T08:26:06.580Z</time>
      </trkpt>
      <trkpt lat="47.40534" lon="6.75736">
        <ele>527.2</ele>
        <time>2022-03-05T08:26:12.737Z</time>
      </trkpt>
      <trkpt lat="47.40475" lon="6.75726">
        <ele>524.2</ele>
        <time>2022-03-05T08:26:19.077Z</time>
      </trkpt>
      <trkpt lat="47.40286" lon="6.757">
        <ele>509.8</ele>
        <time>2022-03-05T08:26:38.491Z</time>
      </trkpt>
      <trkpt lat="47.40204" lon="6.75713">
        <ele>506</ele>
        <time>2022-03-05T08:26:47.647Z</time>
      </trkpt>
      <trkpt lat="47.40078" lon="6.75653">
        <ele>494.2</ele>
        <time>2022-03-05T08:27:01.187Z</time>
      </trkpt>
      <trkpt lat="47.40002" lon="6.75563">
        <ele>486.5</ele>
        <time>2022-03-05T08:27:11.149Z</time>
      </trkpt>
      <trkpt lat="47.39968" lon="6.75573">
        <ele>483.4</ele>
        <time>2022-03-05T08:27:14.694Z</time>
      </trkpt>
      <trkpt lat="47.39952" lon="6.75651">
        <ele>479.7</ele>
        <time>2022-03-05T08:27:20.337Z</time>
      </trkpt>
      <trkpt lat="47.39925" lon="6.75629">
        <ele>476.5</ele>
        <time>2022-03-05T08:27:23.490Z</time>
      </trkpt>
      <trkpt lat="47.39866" lon="6.75528">
        <ele>472.6</ele>
        <time>2022-03-05T08:27:33.783Z</time>
      </trkpt>
      <trkpt lat="47.39798" lon="6.75479">
        <ele>468</ele>
        <time>2022-03-05T08:27:41.202Z</time>
      </trkpt>
      <trkpt lat="47.39801" lon="6.75438">
        <ele>464.8</ele>
        <time>2022-03-05T08:27:44.057Z</time>
      </trkpt>
      <trkpt lat="47.39903" lon="6.75359">
        <ele>458</ele>
        <time>2022-03-05T08:27:55.509Z</time>
      </trkpt>
      <trkpt lat="47.40028" lon="6.75395">
        <ele>451.1</ele>
        <time>2022-03-05T08:28:08.689Z</time>
      </trkpt>
      <trkpt lat="47.40164" lon="6.75391">
        <ele>447.6</ele>
        <time>2022-03-05T08:28:27.168Z</time>
      </trkpt>
      <trkpt lat="47.40169" lon="6.75363">
        <ele>439</ele>
        <time>2022-03-05T08:28:29.173Z</time>
      </trkpt>
      <trkpt lat="47.4015" lon="6.75335">
        <ele>428.2</ele>
        <time>2022-03-05T08:28:31.917Z</time>
      </trkpt>
      <trkpt lat="47.4009" lon="6.75357">
        <ele>433.3</ele>
        <time>2022-03-05T08:29:03.772Z</time>
      </trkpt>
      <trkpt lat="47.40012" lon="6.7532">
        <ele>425.2</ele>
        <time>2022-03-05T08:29:12.150Z</time>
      </trkpt>
      <trkpt lat="47.39913" lon="6.75221">
        <ele>417.9</ele>
        <time>2022-03-05T08:29:23.848Z</time>
      </trkpt>
      <trkpt lat="47.39854" lon="6.7524">
        <ele>418.4</ele>
        <time>2022-03-05T08:29:39.003Z</time>
      </trkpt>
      <trkpt lat="47.397" lon="6.753">
        <ele>407.3</ele>
        <time>2022-03-05T08:29:55.292Z</time>
      </trkpt>
      <trkpt lat="47.39599" lon="6.75352">
        <ele>400.9</ele>
        <time>2022-03-05T08:30:05.861Z</time>
      </trkpt>
      <trkpt lat="47.39462" lon="6.75388">
        <ele>392.5</ele>
        <time>2022-03-05T08:30:19.553Z</time>
      </trkpt>
      <trkpt lat="47.39343" lon="6.75384">
        <ele>386.2</ele>
        <time>2022-03-05T08:30:32.002Z</time>
      </trkpt>
      <trkpt lat="47.39161" lon="6.75414">
        <ele>374</ele>
        <time>2022-03-05T08:30:49.166Z</time>
      </trkpt>
      <trkpt lat="47.39102" lon="6.75427">
        <ele>369.6</ele>
        <time>2022-03-05T08:30:55.267Z</time>
      </trkpt>
      <trkpt lat="47.39026" lon="6.75416">
        <ele>364.9</ele>
        <time>2022-03-05T08:31:02.711Z</time>
      </trkpt>
      <trkpt lat="47.39015" lon="6.75435">
        <ele>364.2</ele>
        <time>2022-03-05T08:31:04.673Z</time>
      </trkpt>
      <trkpt lat="47.38973" lon="6.7542">
        <ele>362.9</ele>
        <time>2022-03-05T08:31:10.275Z</time>
      </trkpt>
      <trkpt lat="47.38918" lon="6.75696">
        <ele>359.9</ele>
        <time>2022-03-05T08:31:40.123Z</time>
      </trkpt>
      <trkpt lat="47.38866" lon="6.75973">
        <ele>359.6</ele>
        <time>2022-03-05T08:32:24.219Z</time>
      </trkpt>
      <trkpt lat="47.38854" lon="6.76101">
        <ele>362.9</ele>
        <time>2022-03-05T08:32:55.223Z</time>
      </trkpt>
      <trkpt lat="47.38833" lon="6.76247">
        <ele>365.2</ele>
        <time>2022-03-05T08:33:24.834Z</time>
      </trkpt>
      <trkpt lat="47.38782" lon="6.76297">
        <ele>367.2</ele>
        <time>2022-03-05T08:33:45.095Z</time>
      </trkpt>
      <trkpt lat="47.38702" lon="6.76423">
        <ele>364.1</ele>
        <time>2022-03-05T08:34:00.848Z</time>
      </trkpt>
      <trkpt lat="47.38629" lon="6.76447">
        <ele>364.9</ele>
        <time>2022-03-05T08:34:20.078Z</time>
      </trkpt>
      <trkpt lat="47.38603" lon="6.76492">
        <ele>362.8</ele>
        <time>2022-03-05T08:34:24.284Z</time>
      </trkpt>
      <trkpt lat="47.38576" lon="6.76543">
        <ele>362</ele>
        <time>2022-03-05T08:34:30.772Z</time>
      </trkpt>
      <trkpt lat="47.3859" lon="6.76566">
        <ele>361.5</ele>
        <time>2022-03-05T08:34:33.676Z</time>
      </trkpt>
      <trkpt lat="47.38537" lon="6.7657">
        <ele>361.8</ele>
        <time>2022-03-05T08:34:46.657Z</time>
      </trkpt>
      <trkpt lat="47.3851" lon="6.76566">
        <ele>362</ele>
        <time>2022-03-05T08:34:53.406Z</time>
      </trkpt>
      <trkpt lat="47.38518" lon="6.7653">
        <ele>362.3</ele>
        <time>2022-03-05T08:35:00.070Z</time>
      </trkpt>
      <trkpt lat="47.38421" lon="6.76575">
        <ele>361.7</ele>
        <time>2022-03-05T08:35:21.696Z</time>
      </trkpt>
      <trkpt lat="47.38315" lon="6.76661">
        <ele>361.4</ele>
        <time>2022-03-05T08:35:48.720Z</time>
      </trkpt>
      <trkpt lat="47.38221" lon="6.76757">
        <ele>362.2</ele>
        <time>2022-03-05T08:36:17.043Z</time>
      </trkpt>
      <trkpt lat="47.38154" lon="6.76826">
        <ele>362.1</ele>
        <time>2022-03-05T08:36:35.640Z</time>
      </trkpt>
      <trkpt lat="47.38093" lon="6.76847">
        <ele>363.3</ele>
        <time>2022-03-05T08:36:53.259Z</time>
      </trkpt>
      <trkpt lat="47.38017" lon="6.76871">
        <ele>361.2</ele>
        <time>2022-03-05T08:37:03.669Z</time>
      </trkpt>
      <trkpt lat="47.38008" lon="6.76844">
        <ele>362.4</ele>
        <time>2022-03-05T08:37:12.445Z</time>
      </trkpt>
      <trkpt lat="47.37952" lon="6.76806">
        <ele>362.5</ele>
        <time>2022-03-05T08:37:26.954Z</time>
      </trkpt>
      <trkpt lat="47.3786" lon="6.76692">
        <ele>372.2</ele>
        <time>2022-03-05T08:38:27.958Z</time>
      </trkpt>
      <trkpt lat="47.37815" lon="6.76626">
        <ele>377</ele>
        <time>2022-03-05T08:38:58.884Z</time>
      </trkpt>
      <trkpt lat="47.37798" lon="6.76574">
        <ele>379.1</ele>
        <time>2022-03-05T08:39:15.136Z</time>
      </trkpt>
      <trkpt lat="47.37822" lon="6.76553">
        <ele>384.3</ele>
        <time>2022-03-05T08:39:40.093Z</time>
      </trkpt>
      <trkpt lat="47.37827" lon="6.76503">
        <ele>375.1</ele>
        <time>2022-03-05T08:39:43.594Z</time>
      </trkpt>
      <trkpt lat="47.37799" lon="6.76369">
        <ele>371.6</ele>
        <time>2022-03-05T08:39:55.088Z</time>
      </trkpt>
      <trkpt lat="47.37739" lon="6.76277">
        <ele>363.9</ele>
        <time>2022-03-05T08:40:03.934Z</time>
      </trkpt>
      <trkpt lat="47.37707" lon="6.76215">
        <ele>362.5</ele>
        <time>2022-03-05T08:40:11.044Z</time>
      </trkpt>
      <trkpt lat="47.37666" lon="6.76138">
        <ele>359.2</ele>
        <time>2022-03-05T08:40:18.173Z</time>
      </trkpt>
      <trkpt lat="47.37596" lon="6.76035">
        <ele>358.7</ele>
        <time>2022-03-05T08:40:39.444Z</time>
      </trkpt>
      <trkpt lat="47.37512" lon="6.75988">
        <ele>356.7</ele>
        <time>2022-03-05T08:40:52.129Z</time>
      </trkpt>
      <trkpt lat="47.37435" lon="6.75949">
        <ele>356.9</ele>
        <time>2022-03-05T08:41:11.445Z</time>
      </trkpt>
      <trkpt lat="47.37371" lon="6.75951">
        <ele>356.8</ele>
        <time>2022-03-05T08:41:25.945Z</time>
      </trkpt>
      <trkpt lat="47.37241" lon="6.75945">
        <ele>355</ele>
        <time>2022-03-05T08:41:46.269Z</time>
      </trkpt>
      <trkpt lat="47.37155" lon="6.75905">
        <ele>354</ele>
        <time>2022-03-05T08:42:00.866Z</time>
      </trkpt>
      <trkpt lat="47.37088" lon="6.7584">
        <ele>354.1</ele>
        <time>2022-03-05T08:42:19.675Z</time>
      </trkpt>
      <trkpt lat="47.37017" lon="6.7578">
        <ele>353.2</ele>
        <time>2022-03-05T08:42:32.934Z</time>
      </trkpt>
      <trkpt lat="47.36956" lon="6.75726">
        <ele>351.4</ele>
        <time>2022-03-05T08:42:42.641Z</time>
      </trkpt>
      <trkpt lat="47.36904" lon="6.75638">
        <ele>354.8</ele>
        <time>2022-03-05T08:43:12.901Z</time>
      </trkpt>
      <trkpt lat="47.36814" lon="6.75553">
        <ele>357.4</ele>
        <time>2022-03-05T08:43:44.789Z</time>
      </trkpt>
      <trkpt lat="47.36749" lon="6.75528">
        <ele>355</ele>
        <time>2022-03-05T08:43:53.010Z</time>
      </trkpt>
      <trkpt lat="47.36698" lon="6.75525">
        <ele>354.4</ele>
        <time>2022-03-05T08:44:01.202Z</time>
      </trkpt>
      <trkpt lat="47.36641" lon="6.75536">
        <ele>353</ele>
        <time>2022-03-05T08:44:09.131Z</time>
      </trkpt>
      <trkpt lat="47.36558" lon="6.75483">
        <ele>354.6</ele>
        <time>2022-03-05T08:44:34.162Z</time>
      </trkpt>
      <trkpt lat="47.36473" lon="6.75496">
        <ele>355.3</ele>
        <time>2022-03-05T08:44:55.590Z</time>
      </trkpt>
      <trkpt lat="47.36343" lon="6.75494">
        <ele>359</ele>
        <time>2022-03-05T08:45:36.376Z</time>
      </trkpt>
      <trkpt lat="47.36202" lon="6.75496">
        <ele>358</ele>
        <time>2022-03-05T08:46:05.875Z</time>
      </trkpt>
      <trkpt lat="47.36167" lon="6.75544">
        <ele>358.4</ele>
        <time>2022-03-05T08:46:17.876Z</time>
      </trkpt>
      <trkpt lat="47.36124" lon="6.75548">
        <ele>357.9</ele>
        <time>2022-03-05T08:46:24.804Z</time>
      </trkpt>
      <trkpt lat="47.36061" lon="6.75544">
        <ele>358</ele>
        <time>2022-03-05T08:46:39.645Z</time>
      </trkpt>
      <trkpt lat="47.35994" lon="6.7563">
        <ele>354.3</ele>
        <time>2022-03-05T08:46:49.908Z</time>
      </trkpt>
      <trkpt lat="47.35882" lon="6.75718">
        <ele>354.9</ele>
        <time>2022-03-05T08:47:20.668Z</time>
      </trkpt>
      <trkpt lat="47.35725" lon="6.75804">
        <ele>357.8</ele>
        <time>2022-03-05T08:48:06.831Z</time>
      </trkpt>
      <trkpt lat="47.35621" lon="6.75842">
        <ele>358.9</ele>
        <time>2022-03-05T08:48:34.260Z</time>
      </trkpt>
      <trkpt lat="47.35522" lon="6.75887">
        <ele>358.4</ele>
        <time>2022-03-05T08:48:56.631Z</time>
      </trkpt>
      <trkpt lat="47.35365" lon="6.75877">
        <ele>359.2</ele>
        <time>2022-03-05T08:49:34.862Z</time>
      </trkpt>
      <trkpt lat="47.3519" lon="6.75872">
        <ele>360.8</ele>
        <time>2022-03-05T08:50:19.169Z</time>
      </trkpt>
      <trkpt lat="47.35004" lon="6.75872">
        <ele>361.3</ele>
        <time>2022-03-05T08:51:03.398Z</time>
      </trkpt>
      <trkpt lat="47.34898" lon="6.75811">
        <ele>362.9</ele>
        <time>2022-03-05T08:51:33.688Z</time>
      </trkpt>
      <trkpt lat="47.34853" lon="6.75714">
        <ele>363.7</ele>
        <time>2022-03-05T08:51:54.034Z</time>
      </trkpt>
      <trkpt lat="47.34802" lon="6.75652">
        <ele>360.6</ele>
        <time>2022-03-05T08:52:01.315Z</time>
      </trkpt>
      <trkpt lat="47.34752" lon="6.75607">
        <ele>357.3</ele>
        <time>2022-03-05T08:52:07.267Z</time>
      </trkpt>
      <trkpt lat="47.34706" lon="6.75648">
        <ele>356.1</ele>
        <time>2022-03-05T08:52:14.851Z</time>
      </trkpt>
      <trkpt lat="47.34652" lon="6.7568">
        <ele>358.2</ele>
        <time>2022-03-05T08:52:35.012Z</time>
      </trkpt>
      <trkpt lat="47.34546" lon="6.75729">
        <ele>358.9</ele>
        <time>2022-03-05T08:53:02.353Z</time>
      </trkpt>
      <trkpt lat="47.34412" lon="6.75789">
        <ele>359.6</ele>
        <time>2022-03-05T08:53:36.390Z</time>
      </trkpt>
      <trkpt lat="47.343" lon="6.75794">
        <ele>360.5</ele>
        <time>2022-03-05T08:54:04.443Z</time>
      </trkpt>
      <trkpt lat="47.34256" lon="6.75814">
        <ele>360.4</ele>
        <time>2022-03-05T08:54:14.777Z</time>
      </trkpt>
      <trkpt lat="47.34102" lon="6.75747">
        <ele>362.7</ele>
        <time>2022-03-05T08:54:57.640Z</time>
      </trkpt>
      <trkpt lat="47.34009" lon="6.7573">
        <ele>361.8</ele>
        <time>2022-03-05T08:55:13.112Z</time>
      </trkpt>
      <trkpt lat="47.3394" lon="6.75693">
        <ele>361.8</ele>
        <time>2022-03-05T08:55:30.140Z</time>
      </trkpt>
      <trkpt lat="47.33888" lon="6.75671">
        <ele>361.7</ele>
        <time>2022-03-05T08:55:42.341Z</time>
      </trkpt>
      <trkpt lat="47.33836" lon="6.7565">
        <ele>361.5</ele>
        <time>2022-03-05T08:55:54.173Z</time>
      </trkpt>
      <trkpt lat="47.33759" lon="6.75547">
        <ele>364.6</ele>
        <time>2022-03-05T08:56:27.340Z</time>
      </trkpt>
      <trkpt lat="47.3368" lon="6.755">
        <ele>367.5</ele>
        <time>2022-03-05T08:56:56.049Z</time>
      </trkpt>
      <trkpt lat="47.33606" lon="6.7547">
        <ele>370</ele>
        <time>2022-03-05T08:57:21.418Z</time>
      </trkpt>
      <trkpt lat="47.33509" lon="6.75474">
        <ele>368.8</ele>
        <time>2022-03-05T08:57:36.870Z</time>
      </trkpt>
      <trkpt lat="47.33423" lon="6.75478">
        <ele>368.6</ele>
        <time>2022-03-05T08:57:56.140Z</time>
      </trkpt>
      <trkpt lat="47.33375" lon="6.7549">
        <ele>368.3</ele>
        <time>2022-03-05T08:58:06.458Z</time>
      </trkpt>
      <trkpt lat="47.33346" lon="6.75583">
        <ele>368.2</ele>
        <time>2022-03-05T08:58:22.202Z</time>
      </trkpt>
      <trkpt lat="47.33297" lon="6.75675">
        <ele>367.9</ele>
        <time>2022-03-05T08:58:39.587Z</time>
      </trkpt>
      <trkpt lat="47.33231" lon="6.75735">
        <ele>368.6</ele>
        <time>2022-03-05T08:58:59.189Z</time>
      </trkpt>
      <trkpt lat="47.33178" lon="6.75894">
        <ele>375.5</ele>
        <time>2022-03-05T08:59:50.394Z</time>
      </trkpt>
      <trkpt lat="47.33104" lon="6.75962">
        <ele>377.7</ele>
        <time>2022-03-05T09:00:16.693Z</time>
      </trkpt>
      <trkpt lat="47.33031" lon="6.76055">
        <ele>367.8</ele>
        <time>2022-03-05T09:00:26.557Z</time>
      </trkpt>
      <trkpt lat="47.32969" lon="6.76104">
        <ele>366</ele>
        <time>2022-03-05T09:00:36.127Z</time>
      </trkpt>
      <trkpt lat="47.32948" lon="6.76207">
        <ele>364</ele>
        <time>2022-03-05T09:00:45.848Z</time>
      </trkpt>
      <trkpt lat="47.32819" lon="6.76501">
        <ele>364.2</ele>
        <time>2022-03-05T09:01:41.334Z</time>
      </trkpt>
      <trkpt lat="47.32749" lon="6.76694">
        <ele>367</ele>
        <time>2022-03-05T09:02:22.938Z</time>
      </trkpt>
      <trkpt lat="47.32707" lon="6.76734">
        <ele>367.4</ele>
        <time>2022-03-05T09:02:35.449Z</time>
      </trkpt>
      <trkpt lat="47.32658" lon="6.76802">
        <ele>361.6</ele>
        <time>2022-03-05T09:02:42.330Z</time>
      </trkpt>
      <trkpt lat="47.32658" lon="6.76907">
        <ele>366.3</ele>
        <time>2022-03-05T09:03:14.583Z</time>
      </trkpt>
      <trkpt lat="47.32665" lon="6.7704">
        <ele>367.1</ele>
        <time>2022-03-05T09:03:37.404Z</time>
      </trkpt>
      <trkpt lat="47.32683" lon="6.77137">
        <ele>362.6</ele>
        <time>2022-03-05T09:03:43.823Z</time>
      </trkpt>
      <trkpt lat="47.32756" lon="6.77168">
        <ele>366.6</ele>
        <time>2022-03-05T09:04:15.177Z</time>
      </trkpt>
      <trkpt lat="47.32768" lon="6.7734">
        <ele>370.6</ele>
        <time>2022-03-05T09:04:54.722Z</time>
      </trkpt>
      <trkpt lat="47.32755" lon="6.7759">
        <ele>365</ele>
        <time>2022-03-05T09:05:16.112Z</time>
      </trkpt>
      <trkpt lat="47.3277" lon="6.77786">
        <ele>366.4</ele>
        <time>2022-03-05T09:05:50.411Z</time>
      </trkpt>
      <trkpt lat="47.32747" lon="6.7804">
        <ele>367.3</ele>
        <time>2022-03-05T09:06:32.704Z</time>
      </trkpt>
      <trkpt lat="47.32747" lon="6.78042">
        <ele>367.5</ele>
        <time>2022-03-05T09:06:33.917Z</time>
      </trkpt>
      <trkpt lat="47.32713" lon="6.78177">
        <ele>370.1</ele>
        <time>2022-03-05T09:07:03.864Z</time>
      </trkpt>
      <trkpt lat="47.32635" lon="6.78323">
        <ele>367.8</ele>
        <time>2022-03-05T09:07:22.514Z</time>
      </trkpt>
      <trkpt lat="47.32543" lon="6.78523">
        <ele>370.5</ele>
        <time>2022-03-05T09:08:07.269Z</time>
      </trkpt>
      <trkpt lat="47.32567" lon="6.78532">
        <ele>371.6</ele>
        <time>2022-03-05T09:08:16.953Z</time>
      </trkpt>
      <trkpt lat="47.32622" lon="6.78512">
        <ele>376.5</ele>
        <time>2022-03-05T09:08:47.148Z</time>
      </trkpt>
      <trkpt lat="47.32684" lon="6.78463">
        <ele>375.8</ele>
        <time>2022-03-05T09:08:58.707Z</time>
      </trkpt>
      <trkpt lat="47.32716" lon="6.78457">
        <ele>376.1</ele>
        <time>2022-03-05T09:09:06.885Z</time>
      </trkpt>
      <trkpt lat="47.32719" lon="6.785">
        <ele>381.8</ele>
        <time>2022-03-05T09:09:33.097Z</time>
      </trkpt>
      <trkpt lat="47.32658" lon="6.7854">
        <ele>387</ele>
        <time>2022-03-05T09:10:06.225Z</time>
      </trkpt>
      <trkpt lat="47.32599" lon="6.78652">
        <ele>393.7</ele>
        <time>2022-03-05T09:10:50.992Z</time>
      </trkpt>
      <trkpt lat="47.3254" lon="6.78768">
        <ele>397.4</ele>
        <time>2022-03-05T09:11:25.789Z</time>
      </trkpt>
      <trkpt lat="47.32487" lon="6.7897">
        <ele>410.9</ele>
        <time>2022-03-05T09:12:47.903Z</time>
      </trkpt>
      <trkpt lat="47.32446" lon="6.79065">
        <ele>410.5</ele>
        <time>2022-03-05T09:13:04.293Z</time>
      </trkpt>
      <trkpt lat="47.32404" lon="6.79198">
        <ele>408.1</ele>
        <time>2022-03-05T09:13:18.046Z</time>
      </trkpt>
      <trkpt lat="47.32436" lon="6.79208">
        <ele>418.5</ele>
        <time>2022-03-05T09:13:47.309Z</time>
      </trkpt>
      <trkpt lat="47.32451" lon="6.79135">
        <ele>418</ele>
        <time>2022-03-05T09:13:55.838Z</time>
      </trkpt>
      <trkpt lat="47.32534" lon="6.78979">
        <ele>428.8</ele>
        <time>2022-03-05T09:15:03.883Z</time>
      </trkpt>
      <trkpt lat="47.32592" lon="6.78848">
        <ele>434.5</ele>
        <time>2022-03-05T09:15:47.978Z</time>
      </trkpt>
      <trkpt lat="47.32694" lon="6.78693">
        <ele>451.1</ele>
        <time>2022-03-05T09:17:29.522Z</time>
      </trkpt>
      <trkpt lat="47.32756" lon="6.78642">
        <ele>455.3</ele>
        <time>2022-03-05T09:18:00.150Z</time>
      </trkpt>
      <trkpt lat="47.32849" lon="6.78642">
        <ele>451.8</ele>
        <time>2022-03-05T09:18:11.323Z</time>
      </trkpt>
      <trkpt lat="47.3289" lon="6.78706">
        <ele>438.4</ele>
        <time>2022-03-05T09:18:17.427Z</time>
      </trkpt>
      <trkpt lat="47.32889" lon="6.78835">
        <ele>461.5</ele>
        <time>2022-03-05T09:19:35.653Z</time>
      </trkpt>
      <trkpt lat="47.32914" lon="6.78897">
        <ele>470.8</ele>
        <time>2022-03-05T09:20:19.397Z</time>
      </trkpt>
      <trkpt lat="47.32955" lon="6.78831">
        <ele>474.6</ele>
        <time>2022-03-05T09:20:46.226Z</time>
      </trkpt>
      <trkpt lat="47.33" lon="6.78761">
        <ele>475.8</ele>
        <time>2022-03-05T09:21:04.457Z</time>
      </trkpt>
      <trkpt lat="47.33046" lon="6.78688">
        <ele>474.4</ele>
        <time>2022-03-05T09:21:14.169Z</time>
      </trkpt>
      <trkpt lat="47.331" lon="6.78668">
        <ele>474.3</ele>
        <time>2022-03-05T09:21:26.736Z</time>
      </trkpt>
      <trkpt lat="47.33168" lon="6.78638">
        <ele>477.2</ele>
        <time>2022-03-05T09:21:53.044Z</time>
      </trkpt>
      <trkpt lat="47.33215" lon="6.78602">
        <ele>480.8</ele>
        <time>2022-03-05T09:22:17.389Z</time>
      </trkpt>
      <trkpt lat="47.33293" lon="6.78589">
        <ele>487.5</ele>
        <time>2022-03-05T09:22:58.821Z</time>
      </trkpt>
      <trkpt lat="47.33378" lon="6.7857">
        <ele>494.2</ele>
        <time>2022-03-05T09:23:41.498Z</time>
      </trkpt>
      <trkpt lat="47.3348" lon="6.78544">
        <ele>497.9</ele>
        <time>2022-03-05T09:24:17.193Z</time>
      </trkpt>
      <trkpt lat="47.33528" lon="6.78529">
        <ele>503.2</ele>
        <time>2022-03-05T09:24:49.296Z</time>
      </trkpt>
      <trkpt lat="47.33603" lon="6.78462">
        <ele>506.5</ele>
        <time>2022-03-05T09:25:20.330Z</time>
      </trkpt>
      <trkpt lat="47.33601" lon="6.78441">
        <ele>506</ele>
        <time>2022-03-05T09:25:22.106Z</time>
      </trkpt>
      <trkpt lat="47.33569" lon="6.78437">
        <ele>503.5</ele>
        <time>2022-03-05T09:25:25.391Z</time>
      </trkpt>
      <trkpt lat="47.33544" lon="6.78407">
        <ele>505.2</ele>
        <time>2022-03-05T09:25:38.699Z</time>
      </trkpt>
      <trkpt lat="47.33536" lon="6.78387">
        <ele>506.9</ele>
        <time>2022-03-05T09:25:48.996Z</time>
      </trkpt>
      <trkpt lat="47.33515" lon="6.78323">
        <ele>510.5</ele>
        <time>2022-03-05T09:26:12.315Z</time>
      </trkpt>
      <trkpt lat="47.33502" lon="6.78258">
        <ele>514.5</ele>
        <time>2022-03-05T09:26:36.921Z</time>
      </trkpt>
      <trkpt lat="47.33454" lon="6.7822">
        <ele>521.9</ele>
        <time>2022-03-05T09:27:25.653Z</time>
      </trkpt>
      <trkpt lat="47.33405" lon="6.78179">
        <ele>526.9</ele>
        <time>2022-03-05T09:27:56.276Z</time>
      </trkpt>
      <trkpt lat="47.33353" lon="6.78121">
        <ele>532.1</ele>
        <time>2022-03-05T09:28:29.119Z</time>
      </trkpt>
      <trkpt lat="47.333" lon="6.78108">
        <ele>529.5</ele>
        <time>2022-03-05T09:28:34.962Z</time>
      </trkpt>
      <trkpt lat="47.33229" lon="6.78035">
        <ele>535.7</ele>
        <time>2022-03-05T09:29:15.858Z</time>
      </trkpt>
      <trkpt lat="47.33147" lon="6.77992">
        <ele>543.6</ele>
        <time>2022-03-05T09:30:04.020Z</time>
      </trkpt>
      <trkpt lat="47.33094" lon="6.77923">
        <ele>551.9</ele>
        <time>2022-03-05T09:30:55.373Z</time>
      </trkpt>
      <trkpt lat="47.33053" lon="6.77801">
        <ele>553.8</ele>
        <time>2022-03-05T09:31:21.754Z</time>
      </trkpt>
      <trkpt lat="47.33061" lon="6.77651">
        <ele>557.1</ele>
        <time>2022-03-05T09:31:55.371Z</time>
      </trkpt>
      <trkpt lat="47.33043" lon="6.77464">
        <ele>559.7</ele>
        <time>2022-03-05T09:32:31.849Z</time>
      </trkpt>
      <trkpt lat="47.33063" lon="6.77333">
        <ele>560.1</ele>
        <time>2022-03-05T09:32:53.844Z</time>
      </trkpt>
      <trkpt lat="47.33118" lon="6.77234">
        <ele>557.9</ele>
        <time>2022-03-05T09:33:05.678Z</time>
      </trkpt>
      <trkpt lat="47.33161" lon="6.77202">
        <ele>553.9</ele>
        <time>2022-03-05T09:33:10.604Z</time>
      </trkpt>
      <trkpt lat="47.33206" lon="6.77189">
        <ele>554</ele>
        <time>2022-03-05T09:33:21.456Z</time>
      </trkpt>
      <trkpt lat="47.33222" lon="6.77136">
        <ele>547.6</ele>
        <time>2022-03-05T09:33:25.478Z</time>
      </trkpt>
      <trkpt lat="47.33257" lon="6.77068">
        <ele>547.5</ele>
        <time>2022-03-05T09:33:38.554Z</time>
      </trkpt>
      <trkpt lat="47.33269" lon="6.77008">
        <ele>548.2</ele>
        <time>2022-03-05T09:33:50.140Z</time>
      </trkpt>
      <trkpt lat="47.33273" lon="6.76884">
        <ele>550</ele>
        <time>2022-03-05T09:34:14.410Z</time>
      </trkpt>
      <trkpt lat="47.33285" lon="6.76847">
        <ele>550.4</ele>
        <time>2022-03-05T09:34:21.836Z</time>
      </trkpt>
      <trkpt lat="47.33426" lon="6.76762">
        <ele>548.2</ele>
        <time>2022-03-05T09:34:45.457Z</time>
      </trkpt>
      <trkpt lat="47.33424" lon="6.76766">
        <ele>548.5</ele>
        <time>2022-03-05T09:34:47.294Z</time>
      </trkpt>
      <trkpt lat="47.33555" lon="6.76698">
        <ele>542.2</ele>
        <time>2022-03-05T09:35:02.810Z</time>
      </trkpt>
      <trkpt lat="47.33575" lon="6.76719">
        <ele>541.5</ele>
        <time>2022-03-05T09:35:06.046Z</time>
      </trkpt>
      <trkpt lat="47.33605" lon="6.76727">
        <ele>539</ele>
        <time>2022-03-05T09:35:09.164Z</time>
      </trkpt>
      <trkpt lat="47.33668" lon="6.76781">
        <ele>530.1</ele>
        <time>2022-03-05T09:35:16.615Z</time>
      </trkpt>
      <trkpt lat="47.3375" lon="6.76912">
        <ele>526.9</ele>
        <time>2022-03-05T09:35:32.899Z</time>
      </trkpt>
      <trkpt lat="47.33819" lon="6.77051">
        <ele>521.2</ele>
        <time>2022-03-05T09:35:45.551Z</time>
      </trkpt>
      <trkpt lat="47.33859" lon="6.77133">
        <ele>519.7</ele>
        <time>2022-03-05T09:35:55.260Z</time>
      </trkpt>
      <trkpt lat="47.33914" lon="6.77154">
        <ele>515.9</ele>
        <time>2022-03-05T09:36:01.070Z</time>
      </trkpt>
      <trkpt lat="47.33952" lon="6.77188">
        <ele>515.5</ele>
        <time>2022-03-05T09:36:08.467Z</time>
      </trkpt>
      <trkpt lat="47.33969" lon="6.77169">
        <ele>510.8</ele>
        <time>2022-03-05T09:36:10.648Z</time>
      </trkpt>
      <trkpt lat="47.33957" lon="6.77143">
        <ele>509.6</ele>
        <time>2022-03-05T09:36:12.816Z</time>
      </trkpt>
      <trkpt lat="47.33937" lon="6.77118">
        <ele>508.7</ele>
        <time>2022-03-05T09:36:16.069Z</time>
      </trkpt>
      <trkpt lat="47.33904" lon="6.77079">
        <ele>508</ele>
        <time>2022-03-05T09:36:22.456Z</time>
      </trkpt>
      <trkpt lat="47.33896" lon="6.7701">
        <ele>501.9</ele>
        <time>2022-03-05T09:36:27.308Z</time>
      </trkpt>
      <trkpt lat="47.33844" lon="6.76882">
        <ele>495.6</ele>
        <time>2022-03-05T09:36:37.109Z</time>
      </trkpt>
      <trkpt lat="47.33817" lon="6.76816">
        <ele>492.3</ele>
        <time>2022-03-05T09:36:42.137Z</time>
      </trkpt>
      <trkpt lat="47.33751" lon="6.76678">
        <ele>493.5</ele>
        <time>2022-03-05T09:37:11.506Z</time>
      </trkpt>
      <trkpt lat="47.33668" lon="6.76375">
        <ele>475.6</ele>
        <time>2022-03-05T09:37:34.158Z</time>
      </trkpt>
      <trkpt lat="47.33668" lon="6.76341">
        <ele>472.3</ele>
        <time>2022-03-05T09:37:36.514Z</time>
      </trkpt>
      <trkpt lat="47.33721" lon="6.76474">
        <ele>469.5</ele>
        <time>2022-03-05T09:37:50.557Z</time>
      </trkpt>
      <trkpt lat="47.3375" lon="6.76562">
        <ele>471.7</ele>
        <time>2022-03-05T09:38:12.651Z</time>
      </trkpt>
      <trkpt lat="47.33916" lon="6.768">
        <ele>447.6</ele>
        <time>2022-03-05T09:38:36.323Z</time>
      </trkpt>
      <trkpt lat="47.34025" lon="6.76916">
        <ele>444.3</ele>
        <time>2022-03-05T09:38:54.818Z</time>
      </trkpt>
      <trkpt lat="47.34104" lon="6.76918">
        <ele>432.8</ele>
        <time>2022-03-05T09:39:02.899Z</time>
      </trkpt>
      <trkpt lat="47.34155" lon="6.76942">
        <ele>423.6</ele>
        <time>2022-03-05T09:39:08.374Z</time>
      </trkpt>
      <trkpt lat="47.34147" lon="6.76927">
        <ele>423.2</ele>
        <time>2022-03-05T09:39:10.036Z</time>
      </trkpt>
      <trkpt lat="47.34086" lon="6.76856">
        <ele>421.4</ele>
        <time>2022-03-05T09:39:20.896Z</time>
      </trkpt>
      <trkpt lat="47.3395" lon="6.76736">
        <ele>413.7</ele>
        <time>2022-03-05T09:39:38.099Z</time>
      </trkpt>
      <trkpt lat="47.33938" lon="6.76704">
        <ele>409.4</ele>
        <time>2022-03-05T09:39:40.634Z</time>
      </trkpt>
      <trkpt lat="47.33985" lon="6.76723">
        <ele>401.4</ele>
        <time>2022-03-05T09:39:45.618Z</time>
      </trkpt>
      <trkpt lat="47.34033" lon="6.76729">
        <ele>399.2</ele>
        <time>2022-03-05T09:39:50.986Z</time>
      </trkpt>
      <trkpt lat="47.34082" lon="6.76669">
        <ele>393.3</ele>
        <time>2022-03-05T09:39:57.498Z</time>
      </trkpt>
      <trkpt lat="47.34131" lon="6.76637">
        <ele>388</ele>
        <time>2022-03-05T09:40:02.978Z</time>
      </trkpt>
      <trkpt lat="47.34232" lon="6.76652">
        <ele>381.3</ele>
        <time>2022-03-05T09:40:12.537Z</time>
      </trkpt>
      <trkpt lat="47.34361" lon="6.76599">
        <ele>377.1</ele>
        <time>2022-03-05T09:40:29.667Z</time>
      </trkpt>
      <trkpt lat="47.34526" lon="6.76511">
        <ele>368.8</ele>
        <time>2022-03-05T09:40:48.932Z</time>
      </trkpt>
      <trkpt lat="47.34633" lon="6.76447">
        <ele>367.8</ele>
        <time>2022-03-05T09:41:08.237Z</time>
      </trkpt>
      <trkpt lat="47.34666" lon="6.76384">
        <ele>367</ele>
        <time>2022-03-05T09:41:16.565Z</time>
      </trkpt>
      <trkpt lat="47.34659" lon="6.7629">
        <ele>365.3</ele>
        <time>2022-03-05T09:41:25.193Z</time>
      </trkpt>
      <trkpt lat="47.34646" lon="6.76215">
        <ele>364.2</ele>
        <time>2022-03-05T09:41:32.712Z</time>
      </trkpt>
      <trkpt lat="47.34646" lon="6.76166">
        <ele>364.2</ele>
        <time>2022-03-05T09:41:40.412Z</time>
      </trkpt>
      <trkpt lat="47.34691" lon="6.7616">
        <ele>364.8</ele>
        <time>2022-03-05T09:41:52.343Z</time>
      </trkpt>
      <trkpt lat="47.34712" lon="6.76134">
        <ele>364</ele>
        <time>2022-03-05T09:41:55.931Z</time>
      </trkpt>
      <trkpt lat="47.3476" lon="6.76096">
        <ele>364.3</ele>
        <time>2022-03-05T09:42:09.235Z</time>
      </trkpt>
      <trkpt lat="47.34824" lon="6.75971">
        <ele>359.7</ele>
        <time>2022-03-05T09:42:21.319Z</time>
      </trkpt>
      <trkpt lat="47.34873" lon="6.75872">
        <ele>358.7</ele>
        <time>2022-03-05T09:42:34.602Z</time>
      </trkpt>
      <trkpt lat="47.34919" lon="6.75784">
        <ele>363</ele>
        <time>2022-03-05T09:43:06.633Z</time>
      </trkpt>
      <trkpt lat="47.34914" lon="6.75812">
        <ele>362.8</ele>
        <time>2022-03-05T09:43:09.846Z</time>
      </trkpt>
      <trkpt lat="47.34965" lon="6.75839">
        <ele>362.7</ele>
        <time>2022-03-05T09:43:22.068Z</time>
      </trkpt>
      <trkpt lat="47.3502" lon="6.75865">
        <ele>362.3</ele>
        <time>2022-03-05T09:43:34.177Z</time>
      </trkpt>
      <trkpt lat="47.3508" lon="6.75865">
        <ele>361.8</ele>
        <time>2022-03-05T09:43:44.255Z</time>
      </trkpt>
      <trkpt lat="47.3515" lon="6.7586">
        <ele>362</ele>
        <time>2022-03-05T09:44:00.946Z</time>
      </trkpt>
      <trkpt lat="47.35202" lon="6.75863">
        <ele>361.7</ele>
        <time>2022-03-05T09:44:12.036Z</time>
      </trkpt>
      <trkpt lat="47.35373" lon="6.75869">
        <ele>360.3</ele>
        <time>2022-03-05T09:44:40.823Z</time>
      </trkpt>
      <trkpt lat="47.35412" lon="6.75874">
        <ele>359.6</ele>
        <time>2022-03-05T09:44:46.643Z</time>
      </trkpt>
      <trkpt lat="47.35512" lon="6.75878">
        <ele>359.5</ele>
        <time>2022-03-05T09:45:09.495Z</time>
      </trkpt>
      <trkpt lat="47.35562" lon="6.7586">
        <ele>360</ele>
        <time>2022-03-05T09:45:22.598Z</time>
      </trkpt>
      <trkpt lat="47.35639" lon="6.75824">
        <ele>359.3</ele>
        <time>2022-03-05T09:45:36.103Z</time>
      </trkpt>
      <trkpt lat="47.35692" lon="6.75808">
        <ele>358.1</ele>
        <time>2022-03-05T09:45:43.750Z</time>
      </trkpt>
      <trkpt lat="47.35733" lon="6.75796">
        <ele>357.5</ele>
        <time>2022-03-05T09:45:50.239Z</time>
      </trkpt>
      <trkpt lat="47.3585" lon="6.75728">
        <ele>356.1</ele>
        <time>2022-03-05T09:46:10.584Z</time>
      </trkpt>
      <trkpt lat="47.35881" lon="6.75702">
        <ele>356.4</ele>
        <time>2022-03-05T09:46:19.544Z</time>
      </trkpt>
      <trkpt lat="47.35968" lon="6.75638">
        <ele>355.4</ele>
        <time>2022-03-05T09:46:35.448Z</time>
      </trkpt>
      <trkpt lat="47.35991" lon="6.75615">
        <ele>355.9</ele>
        <time>2022-03-05T09:46:43.163Z</time>
      </trkpt>
      <trkpt lat="47.36028" lon="6.75583">
        <ele>356.1</ele>
        <time>2022-03-05T09:46:53.553Z</time>
      </trkpt>
      <trkpt lat="47.36051" lon="6.75551">
        <ele>357.6</ele>
        <time>2022-03-05T09:47:06.161Z</time>
      </trkpt>
      <trkpt lat="47.36078" lon="6.75551">
        <ele>356.1</ele>
        <time>2022-03-05T09:47:08.923Z</time>
      </trkpt>
      <trkpt lat="47.36154" lon="6.7555">
        <ele>358.2</ele>
        <time>2022-03-05T09:47:32.524Z</time>
      </trkpt>
      <trkpt lat="47.36168" lon="6.75535">
        <ele>358.7</ele>
        <time>2022-03-05T09:47:37.981Z</time>
      </trkpt>
      <trkpt lat="47.36215" lon="6.75491">
        <ele>358.2</ele>
        <time>2022-03-05T09:47:47.246Z</time>
      </trkpt>
      <trkpt lat="47.36292" lon="6.7549">
        <ele>359</ele>
        <time>2022-03-05T09:48:06.985Z</time>
      </trkpt>
      <trkpt lat="47.36339" lon="6.75488">
        <ele>359</ele>
        <time>2022-03-05T09:48:17.890Z</time>
      </trkpt>
      <trkpt lat="47.36404" lon="6.75488">
        <ele>358.2</ele>
        <time>2022-03-05T09:48:28.248Z</time>
      </trkpt>
      <trkpt lat="47.36405" lon="6.75488">
        <ele>358.1</ele>
        <time>2022-03-05T09:48:28.350Z</time>
      </trkpt>
      <trkpt lat="47.36493" lon="6.75478">
        <ele>356</ele>
        <time>2022-03-05T09:48:40.601Z</time>
      </trkpt>
      <trkpt lat="47.36547" lon="6.75475">
        <ele>354.9</ele>
        <time>2022-03-05T09:48:48.403Z</time>
      </trkpt>
      <trkpt lat="47.36578" lon="6.75488">
        <ele>354.1</ele>
        <time>2022-03-05T09:48:52.825Z</time>
      </trkpt>
      <trkpt lat="47.36636" lon="6.75525">
        <ele>353.1</ele>
        <time>2022-03-05T09:49:02.456Z</time>
      </trkpt>
      <trkpt lat="47.36669" lon="6.7552">
        <ele>353.9</ele>
        <time>2022-03-05T09:49:12.331Z</time>
      </trkpt>
      <trkpt lat="47.36715" lon="6.75519">
        <ele>355.4</ele>
        <time>2022-03-05T09:49:27.545Z</time>
      </trkpt>
      <trkpt lat="47.36741" lon="6.7552">
        <ele>355.6</ele>
        <time>2022-03-05T09:49:34.035Z</time>
      </trkpt>
      <trkpt lat="47.36814" lon="6.75547">
        <ele>360.4</ele>
        <time>2022-03-05T09:50:07.585Z</time>
      </trkpt>
      <trkpt lat="47.36886" lon="6.75616">
        <ele>355.8</ele>
        <time>2022-03-05T09:50:16.513Z</time>
      </trkpt>
      <trkpt lat="47.36936" lon="6.75683">
        <ele>353.5</ele>
        <time>2022-03-05T09:50:24.916Z</time>
      </trkpt>
      <trkpt lat="47.36963" lon="6.75724">
        <ele>352.5</ele>
        <time>2022-03-05T09:50:30.172Z</time>
      </trkpt>
      <trkpt lat="47.37023" lon="6.7578">
        <ele>354</ele>
        <time>2022-03-05T09:50:50.587Z</time>
      </trkpt>
      <trkpt lat="47.37108" lon="6.75854">
        <ele>354.4</ele>
        <time>2022-03-05T09:51:14.356Z</time>
      </trkpt>
      <trkpt lat="47.37159" lon="6.75898">
        <ele>354.4</ele>
        <time>2022-03-05T09:51:28.056Z</time>
      </trkpt>
      <trkpt lat="47.37233" lon="6.75938">
        <ele>355.2</ele>
        <time>2022-03-05T09:51:48.207Z</time>
      </trkpt>
      <trkpt lat="47.37318" lon="6.75946">
        <ele>356</ele>
        <time>2022-03-05T09:52:09.821Z</time>
      </trkpt>
      <trkpt lat="47.37382" lon="6.75945">
        <ele>357</ele>
        <time>2022-03-05T09:52:27.146Z</time>
      </trkpt>
      <trkpt lat="47.374" lon="6.75947">
        <ele>357</ele>
        <time>2022-03-05T09:52:31.332Z</time>
      </trkpt>
      <trkpt lat="47.37434" lon="6.7594">
        <ele>357</ele>
        <time>2022-03-05T09:52:39.294Z</time>
      </trkpt>
      <trkpt lat="47.37496" lon="6.75985">
        <ele>356.5</ele>
        <time>2022-03-05T09:52:53.718Z</time>
      </trkpt>
      <trkpt lat="47.3757" lon="6.76017">
        <ele>357.7</ele>
        <time>2022-03-05T09:53:14.576Z</time>
      </trkpt>
      <trkpt lat="47.37594" lon="6.76044">
        <ele>357.7</ele>
        <time>2022-03-05T09:53:21.574Z</time>
      </trkpt>
      <trkpt lat="47.37658" lon="6.76119">
        <ele>361.1</ele>
        <time>2022-03-05T09:53:52.196Z</time>
      </trkpt>
      <trkpt lat="47.37696" lon="6.76184">
        <ele>362</ele>
        <time>2022-03-05T09:54:07.911Z</time>
      </trkpt>
      <trkpt lat="47.37712" lon="6.76241">
        <ele>361</ele>
        <time>2022-03-05T09:54:13.702Z</time>
      </trkpt>
      <trkpt lat="47.37762" lon="6.76324">
        <ele>363.6</ele>
        <time>2022-03-05T09:54:39.232Z</time>
      </trkpt>
      <trkpt lat="47.37795" lon="6.76383">
        <ele>368</ele>
        <time>2022-03-05T09:55:06.481Z</time>
      </trkpt>
      <trkpt lat="47.37829" lon="6.76487">
        <ele>376</ele>
        <time>2022-03-05T09:55:54.729Z</time>
      </trkpt>
      <trkpt lat="47.37819" lon="6.7655">
        <ele>382.4</ele>
        <time>2022-03-05T09:56:33.929Z</time>
      </trkpt>
      <trkpt lat="47.37808" lon="6.76556">
        <ele>381.7</ele>
        <time>2022-03-05T09:56:35.089Z</time>
      </trkpt>
      <trkpt lat="47.37803" lon="6.76552">
        <ele>378.3</ele>
        <time>2022-03-05T09:56:35.671Z</time>
      </trkpt>
      <trkpt lat="47.37793" lon="6.76548">
        <ele>373.4</ele>
        <time>2022-03-05T09:56:36.730Z</time>
      </trkpt>
      <trkpt lat="47.37782" lon="6.7655">
        <ele>371.5</ele>
        <time>2022-03-05T09:56:37.864Z</time>
      </trkpt>
      <trkpt lat="47.37776" lon="6.76566">
        <ele>373</ele>
        <time>2022-03-05T09:56:47.269Z</time>
      </trkpt>
      <trkpt lat="47.37763" lon="6.7658">
        <ele>370.6</ele>
        <time>2022-03-05T09:56:48.915Z</time>
      </trkpt>
      <trkpt lat="47.37754" lon="6.76592">
        <ele>367.8</ele>
        <time>2022-03-05T09:56:50.155Z</time>
      </trkpt>
      <trkpt lat="47.37744" lon="6.76624">
        <ele>362.4</ele>
        <time>2022-03-05T09:56:52.596Z</time>
      </trkpt>
      <trkpt lat="47.37736" lon="6.76657">
        <ele>359.4</ele>
        <time>2022-03-05T09:56:55.023Z</time>
      </trkpt>
      <trkpt lat="47.37727" lon="6.76647">
        <ele>357.3</ele>
        <time>2022-03-05T09:56:56.175Z</time>
      </trkpt>
      <trkpt lat="47.37718" lon="6.76647">
        <ele>355</ele>
        <time>2022-03-05T09:56:57.096Z</time>
      </trkpt>
      <trkpt lat="47.37707" lon="6.76654">
        <ele>352.9</ele>
        <time>2022-03-05T09:56:58.321Z</time>
      </trkpt>
      <trkpt lat="47.37704" lon="6.76657">
        <ele>352.4</ele>
        <time>2022-03-05T09:56:58.691Z</time>
      </trkpt>
      <trkpt lat="47.37694" lon="6.76653">
        <ele>351</ele>
        <time>2022-03-05T09:56:59.751Z</time>
      </trkpt>
      <trkpt lat="47.37687" lon="6.76655">
        <ele>351</ele>
        <time>2022-03-05T09:57:01.405Z</time>
      </trkpt>
      <trkpt lat="47.37691" lon="6.76642">
        <ele>351</ele>
        <time>2022-03-05T09:57:03.647Z</time>
      </trkpt>
      <trkpt lat="47.37701" lon="6.76644">
        <ele>352.1</ele>
        <time>2022-03-05T09:57:10.319Z</time>
      </trkpt>
      <trkpt lat="47.37699" lon="6.76631">
        <ele>352.9</ele>
        <time>2022-03-05T09:57:15.221Z</time>
      </trkpt>
      <trkpt lat="47.37699" lon="6.76649">
        <ele>351.7</ele>
        <time>2022-03-05T09:57:16.467Z</time>
      </trkpt>
      <trkpt lat="47.37693" lon="6.76658">
        <ele>351</ele>
        <time>2022-03-05T09:57:17.342Z</time>
      </trkpt>
      <trkpt lat="47.37686" lon="6.76644">
        <ele>351</ele>
        <time>2022-03-05T09:57:20.075Z</time>
      </trkpt>
      <trkpt lat="47.37695" lon="6.76648">
        <ele>351</ele>
        <time>2022-03-05T09:57:22.255Z</time>
      </trkpt>
      <trkpt lat="47.37704" lon="6.76651">
        <ele>352.6</ele>
        <time>2022-03-05T09:57:30.510Z</time>
      </trkpt>
      <trkpt lat="47.37715" lon="6.76643">
        <ele>354.6</ele>
        <time>2022-03-05T09:57:41.479Z</time>
      </trkpt>
      <trkpt lat="47.37728" lon="6.76646">
        <ele>357.7</ele>
        <time>2022-03-05T09:57:53.250Z</time>
      </trkpt>
      <trkpt lat="47.37743" lon="6.76662">
        <ele>360.7</ele>
        <time>2022-03-05T09:58:09.804Z</time>
      </trkpt>
      <trkpt lat="47.37763" lon="6.76686">
        <ele>361.7</ele>
        <time>2022-03-05T09:58:19.077Z</time>
      </trkpt>
      <trkpt lat="47.37793" lon="6.76714">
        <ele>361.5</ele>
        <time>2022-03-05T09:58:26.654Z</time>
      </trkpt>
      <trkpt lat="47.37806" lon="6.76723">
        <ele>362</ele>
        <time>2022-03-05T09:58:31.544Z</time>
      </trkpt>
      <trkpt lat="47.37821" lon="6.7674">
        <ele>361.4</ele>
        <time>2022-03-05T09:58:33.954Z</time>
      </trkpt>
      <trkpt lat="47.37835" lon="6.76766">
        <ele>359.5</ele>
        <time>2022-03-05T09:58:36.255Z</time>
      </trkpt>
      <trkpt lat="47.37876" lon="6.76814">
        <ele>358.6</ele>
        <time>2022-03-05T09:58:44.097Z</time>
      </trkpt>
      <trkpt lat="47.37909" lon="6.76844">
        <ele>358.6</ele>
        <time>2022-03-05T09:58:53.085Z</time>
      </trkpt>
      <trkpt lat="47.37947" lon="6.76873">
        <ele>358.8</ele>
        <time>2022-03-05T09:59:03.450Z</time>
      </trkpt>
      <trkpt lat="47.37981" lon="6.7688">
        <ele>359.1</ele>
        <time>2022-03-05T09:59:12.105Z</time>
      </trkpt>
      <trkpt lat="47.38005" lon="6.76886">
        <ele>358.9</ele>
        <time>2022-03-05T09:59:16.200Z</time>
      </trkpt>
      <trkpt lat="47.38018" lon="6.76911">
        <ele>359.4</ele>
        <time>2022-03-05T09:59:22.503Z</time>
      </trkpt>
      <trkpt lat="47.38029" lon="6.76935">
        <ele>358.6</ele>
        <time>2022-03-05T09:59:24.790Z</time>
      </trkpt>
      <trkpt lat="47.38042" lon="6.76978">
        <ele>357.5</ele>
        <time>2022-03-05T09:59:28.742Z</time>
      </trkpt>
      <trkpt lat="47.38051" lon="6.76995">
        <ele>357.8</ele>
        <time>2022-03-05T09:59:32.916Z</time>
      </trkpt>
      <trkpt lat="47.38064" lon="6.77012">
        <ele>357.2</ele>
        <time>2022-03-05T09:59:35.066Z</time>
      </trkpt>
      <trkpt lat="47.38094" lon="6.77026">
        <ele>357.6</ele>
        <time>2022-03-05T09:59:43.325Z</time>
      </trkpt>
      <trkpt lat="47.38123" lon="6.77018">
        <ele>356.5</ele>
        <time>2022-03-05T09:59:46.881Z</time>
      </trkpt>
      <trkpt lat="47.38131" lon="6.77009">
        <ele>356.5</ele>
        <time>2022-03-05T09:59:49.214Z</time>
      </trkpt>
      <trkpt lat="47.3815" lon="6.77011">
        <ele>356</ele>
        <time>2022-03-05T09:59:51.786Z</time>
      </trkpt>
      <trkpt lat="47.38167" lon="6.77007">
        <ele>355.8</ele>
        <time>2022-03-05T09:59:54.554Z</time>
      </trkpt>
      <trkpt lat="47.38181" lon="6.77013">
        <ele>355</ele>
        <time>2022-03-05T09:59:56.054Z</time>
      </trkpt>
      <trkpt lat="47.38185" lon="6.77035">
        <ele>354.1</ele>
        <time>2022-03-05T09:59:57.596Z</time>
      </trkpt>
      <trkpt lat="47.38193" lon="6.77047">
        <ele>353.4</ele>
        <time>2022-03-05T09:59:58.709Z</time>
      </trkpt>
      <trkpt lat="47.38204" lon="6.77059">
        <ele>353</ele>
        <time>2022-03-05T10:00:00.498Z</time>
      </trkpt>
      <trkpt lat="47.38211" lon="6.77075">
        <ele>352.6</ele>
        <time>2022-03-05T10:00:02.154Z</time>
      </trkpt>
      <trkpt lat="47.38213" lon="6.77089">
        <ele>352.3</ele>
        <time>2022-03-05T10:00:03.399Z</time>
      </trkpt>
      <trkpt lat="47.38215" lon="6.77137">
        <ele>352</ele>
        <time>2022-03-05T10:00:08.803Z</time>
      </trkpt>
      <trkpt lat="47.38216" lon="6.77178">
        <ele>351.1</ele>
        <time>2022-03-05T10:00:12.319Z</time>
      </trkpt>
      <trkpt lat="47.38229" lon="6.77174">
        <ele>350.6</ele>
        <time>2022-03-05T10:00:13.914Z</time>
      </trkpt>
      <trkpt lat="47.38232" lon="6.77169">
        <ele>350.6</ele>
        <time>2022-03-05T10:00:14.963Z</time>
      </trkpt>
      <trkpt lat="47.38226" lon="6.77166">
        <ele>350.9</ele>
        <time>2022-03-05T10:00:17.489Z</time>
      </trkpt>
      <trkpt lat="47.38225" lon="6.77186">
        <ele>350.8</ele>
        <time>2022-03-05T10:00:19.800Z</time>
      </trkpt>
      <trkpt lat="47.38233" lon="6.77183">
        <ele>350.2</ele>
        <time>2022-03-05T10:00:20.644Z</time>
      </trkpt>
      <trkpt lat="47.38238" lon="6.77178">
        <ele>350</ele>
        <time>2022-03-05T10:00:21.402Z</time>
      </trkpt>
      <trkpt lat="47.3823" lon="6.77161">
        <ele>351</ele>
        <time>2022-03-05T10:00:28.011Z</time>
      </trkpt>
      <trkpt lat="47.38222" lon="6.77169">
        <ele>351</ele>
        <time>2022-03-05T10:00:30.252Z</time>
      </trkpt>
      <trkpt lat="47.38221" lon="6.77158">
        <ele>351.4</ele>
        <time>2022-03-05T10:00:33.366Z</time>
      </trkpt>
      <trkpt lat="47.38217" lon="6.77084">
        <ele>352.2</ele>
        <time>2022-03-05T10:00:47.014Z</time>
      </trkpt>
      <trkpt lat="47.38222" lon="6.77073">
        <ele>352.4</ele>
        <time>2022-03-05T10:00:49.629Z</time>
      </trkpt>
      <trkpt lat="47.38233" lon="6.77066">
        <ele>352.6</ele>
        <time>2022-03-05T10:00:52.908Z</time>
      </trkpt>
      <trkpt lat="47.38244" lon="6.77055">
        <ele>353</ele>
        <time>2022-03-05T10:00:57.163Z</time>
      </trkpt>
      <trkpt lat="47.38271" lon="6.77031">
        <ele>352.9</ele>
        <time>2022-03-05T10:01:04.133Z</time>
      </trkpt>
      <trkpt lat="47.38287" lon="6.77019">
        <ele>353.3</ele>
        <time>2022-03-05T10:01:09.363Z</time>
      </trkpt>
      <trkpt lat="47.38297" lon="6.77005">
        <ele>353.8</ele>
        <time>2022-03-05T10:01:14.150Z</time>
      </trkpt>
      <trkpt lat="47.38322" lon="6.76966">
        <ele>354.7</ele>
        <time>2022-03-05T10:01:25.057Z</time>
      </trkpt>
      <trkpt lat="47.38349" lon="6.76921">
        <ele>355</ele>
        <time>2022-03-05T10:01:35.183Z</time>
      </trkpt>
      <trkpt lat="47.38359" lon="6.76903">
        <ele>355.5</ele>
        <time>2022-03-05T10:01:40.336Z</time>
      </trkpt>
      <trkpt lat="47.38389" lon="6.7686">
        <ele>356</ele>
        <time>2022-03-05T10:01:51.225Z</time>
      </trkpt>
      <trkpt lat="47.38434" lon="6.768">
        <ele>357.2</ele>
        <time>2022-03-05T10:02:08.401Z</time>
      </trkpt>
      <trkpt lat="47.38463" lon="6.76759">
        <ele>357.8</ele>
        <time>2022-03-05T10:02:19.189Z</time>
      </trkpt>
      <trkpt lat="47.385" lon="6.767">
        <ele>358</ele>
        <time>2022-03-05T10:02:32.257Z</time>
      </trkpt>
      <trkpt lat="47.38524" lon="6.76661">
        <ele>358.2</ele>
        <time>2022-03-05T10:02:40.981Z</time>
      </trkpt>
      <trkpt lat="47.38555" lon="6.76611">
        <ele>360</ele>
        <time>2022-03-05T10:02:57.595Z</time>
      </trkpt>
      <trkpt lat="47.38578" lon="6.7658">
        <ele>361.1</ele>
        <time>2022-03-05T10:03:08.272Z</time>
      </trkpt>
      <trkpt lat="47.38596" lon="6.76541">
        <ele>362</ele>
        <time>2022-03-05T10:03:18.261Z</time>
      </trkpt>
      <trkpt lat="47.38611" lon="6.76498">
        <ele>362.1</ele>
        <time>2022-03-05T10:03:26.076Z</time>
      </trkpt>
      <trkpt lat="47.38632" lon="6.76458">
        <ele>364.3</ele>
        <time>2022-03-05T10:03:41.400Z</time>
      </trkpt>
      <trkpt lat="47.38668" lon="6.76428">
        <ele>365.1</ele>
        <time>2022-03-05T10:03:53.052Z</time>
      </trkpt>
      <trkpt lat="47.387" lon="6.76418">
        <ele>364.5</ele>
        <time>2022-03-05T10:03:57.888Z</time>
      </trkpt>
      <trkpt lat="47.3872" lon="6.76382">
        <ele>366.6</ele>
        <time>2022-03-05T10:04:12.236Z</time>
      </trkpt>
      <trkpt lat="47.38739" lon="6.76351">
        <ele>367</ele>
        <time>2022-03-05T10:04:19.779Z</time>
      </trkpt>
      <trkpt lat="47.38768" lon="6.76305">
        <ele>368.1</ele>
        <time>2022-03-05T10:04:32.711Z</time>
      </trkpt>
      <trkpt lat="47.38795" lon="6.76269">
        <ele>368.9</ele>
        <time>2022-03-05T10:04:43.275Z</time>
      </trkpt>
      <trkpt lat="47.3883" lon="6.76238">
        <ele>366.1</ele>
        <time>2022-03-05T10:04:47.449Z</time>
      </trkpt>
      <trkpt lat="47.38854" lon="6.76051">
        <ele>361.9</ele>
        <time>2022-03-05T10:05:03.727Z</time>
      </trkpt>
      <trkpt lat="47.38869" lon="6.75923">
        <ele>358.9</ele>
        <time>2022-03-05T10:05:14.666Z</time>
      </trkpt>
      <trkpt lat="47.38896" lon="6.75771">
        <ele>359</ele>
        <time>2022-03-05T10:05:39.557Z</time>
      </trkpt>
      <trkpt lat="47.38932" lon="6.75582">
        <ele>360.5</ele>
        <time>2022-03-05T10:06:13.941Z</time>
      </trkpt>
      <trkpt lat="47.38968" lon="6.75422">
        <ele>362.7</ele>
        <time>2022-03-05T10:06:46.092Z</time>
      </trkpt>
      <trkpt lat="47.38976" lon="6.75349">
        <ele>362.9</ele>
        <time>2022-03-05T10:06:58.145Z</time>
      </trkpt>
      <trkpt lat="47.38991" lon="6.75279">
        <ele>365.4</ele>
        <time>2022-03-05T10:07:18.343Z</time>
      </trkpt>
      <trkpt lat="47.39011" lon="6.75211">
        <ele>368.1</ele>
        <time>2022-03-05T10:07:39.218Z</time>
      </trkpt>
      <trkpt lat="47.39034" lon="6.75159">
        <ele>370.6</ele>
        <time>2022-03-05T10:07:57.398Z</time>
      </trkpt>
      <trkpt lat="47.39056" lon="6.7508">
        <ele>373.3</ele>
        <time>2022-03-05T10:08:20.353Z</time>
      </trkpt>
      <trkpt lat="47.39067" lon="6.75061">
        <ele>376.3</ele>
        <time>2022-03-05T10:08:35.495Z</time>
      </trkpt>
      <trkpt lat="47.39075" lon="6.75086">
        <ele>380</ele>
        <time>2022-03-05T10:08:52.242Z</time>
      </trkpt>
      <trkpt lat="47.39069" lon="6.75111">
        <ele>379.2</ele>
        <time>2022-03-05T10:08:54.264Z</time>
      </trkpt>
      <trkpt lat="47.39069" lon="6.75161">
        <ele>383.7</ele>
        <time>2022-03-05T10:09:24.332Z</time>
      </trkpt>
      <trkpt lat="47.39061" lon="6.75201">
        <ele>384.9</ele>
        <time>2022-03-05T10:09:35.055Z</time>
      </trkpt>
      <trkpt lat="47.39051" lon="6.75235">
        <ele>384.8</ele>
        <time>2022-03-05T10:09:40.541Z</time>
      </trkpt>
      <trkpt lat="47.39051" lon="6.75279">
        <ele>384.5</ele>
        <time>2022-03-05T10:09:45.429Z</time>
      </trkpt>
      <trkpt lat="47.39065" lon="6.75282">
        <ele>386.1</ele>
        <time>2022-03-05T10:09:55.210Z</time>
      </trkpt>
      <trkpt lat="47.39085" lon="6.75263">
        <ele>390.2</ele>
        <time>2022-03-05T10:10:16.484Z</time>
      </trkpt>
      <trkpt lat="47.39093" lon="6.75227">
        <ele>395.9</ele>
        <time>2022-03-05T10:10:39.432Z</time>
      </trkpt>
      <trkpt lat="47.39101" lon="6.75193">
        <ele>399.8</ele>
        <time>2022-03-05T10:11:01.232Z</time>
      </trkpt>
      <trkpt lat="47.39112" lon="6.75155">
        <ele>403.3</ele>
        <time>2022-03-05T10:11:23.570Z</time>
      </trkpt>
      <trkpt lat="47.39136" lon="6.75126">
        <ele>412.4</ele>
        <time>2022-03-05T10:11:51.310Z</time>
      </trkpt>
      <trkpt lat="47.39151" lon="6.75083">
        <ele>412.7</ele>
        <time>2022-03-05T10:11:59.601Z</time>
      </trkpt>
      <trkpt lat="47.39178" lon="6.75026">
        <ele>414.7</ele>
        <time>2022-03-05T10:12:17.478Z</time>
      </trkpt>
      <trkpt lat="47.39214" lon="6.74985">
        <ele>421.4</ele>
        <time>2022-03-05T10:12:58.145Z</time>
      </trkpt>
      <trkpt lat="47.39232" lon="6.74948">
        <ele>424.4</ele>
        <time>2022-03-05T10:13:16.266Z</time>
      </trkpt>
      <trkpt lat="47.39248" lon="6.74865">
        <ele>421.9</ele>
        <time>2022-03-05T10:13:22.949Z</time>
      </trkpt>
      <trkpt lat="47.39301" lon="6.74792">
        <ele>424.5</ele>
        <time>2022-03-05T10:13:47.985Z</time>
      </trkpt>
      <trkpt lat="47.39326" lon="6.74732">
        <ele>424</ele>
        <time>2022-03-05T10:13:55.768Z</time>
      </trkpt>
      <trkpt lat="47.39335" lon="6.74705">
        <ele>427.1</ele>
        <time>2022-03-05T10:14:13.994Z</time>
      </trkpt>
      <trkpt lat="47.39319" lon="6.74667">
        <ele>425.1</ele>
        <time>2022-03-05T10:14:16.847Z</time>
      </trkpt>
      <trkpt lat="47.39308" lon="6.74638">
        <ele>425.4</ele>
        <time>2022-03-05T10:14:22.792Z</time>
      </trkpt>
      <trkpt lat="47.39311" lon="6.74567">
        <ele>430.8</ele>
        <time>2022-03-05T10:14:55.733Z</time>
      </trkpt>
      <trkpt lat="47.39326" lon="6.74484">
        <ele>430.9</ele>
        <time>2022-03-05T10:15:09.437Z</time>
      </trkpt>
      <trkpt lat="47.39343" lon="6.74429">
        <ele>433.6</ele>
        <time>2022-03-05T10:15:27.976Z</time>
      </trkpt>
      <trkpt lat="47.39362" lon="6.74372">
        <ele>438</ele>
        <time>2022-03-05T10:15:54.513Z</time>
      </trkpt>
      <trkpt lat="47.3935" lon="6.74307">
        <ele>439.8</ele>
        <time>2022-03-05T10:16:11.081Z</time>
      </trkpt>
      <trkpt lat="47.39356" lon="6.7422">
        <ele>447.7</ele>
        <time>2022-03-05T10:17:04.043Z</time>
      </trkpt>
      <trkpt lat="47.39367" lon="6.74124">
        <ele>457.1</ele>
        <time>2022-03-05T10:18:03.009Z</time>
      </trkpt>
      <trkpt lat="47.39375" lon="6.74051">
        <ele>461.6</ele>
        <time>2022-03-05T10:18:30.496Z</time>
      </trkpt>
      <trkpt lat="47.39384" lon="6.74038">
        <ele>465.7</ele>
        <time>2022-03-05T10:18:41.757Z</time>
      </trkpt>
      <trkpt lat="47.39374" lon="6.73989">
        <ele>464.6</ele>
        <time>2022-03-05T10:18:46.171Z</time>
      </trkpt>
      <trkpt lat="47.39367" lon="6.73873">
        <ele>471.6</ele>
        <time>2022-03-05T10:19:29.040Z</time>
      </trkpt>
      <trkpt lat="47.39357" lon="6.73765">
        <ele>475</ele>
        <time>2022-03-05T10:19:58.216Z</time>
      </trkpt>
      <trkpt lat="47.39354" lon="6.73681">
        <ele>478.5</ele>
        <time>2022-03-05T10:20:23.186Z</time>
      </trkpt>
      <trkpt lat="47.39353" lon="6.736">
        <ele>479.1</ele>
        <time>2022-03-05T10:20:37.323Z</time>
      </trkpt>
      <trkpt lat="47.39369" lon="6.73574">
        <ele>481.9</ele>
        <time>2022-03-05T10:20:54.663Z</time>
      </trkpt>
      <trkpt lat="47.39389" lon="6.73555">
        <ele>483</ele>
        <time>2022-03-05T10:21:04.076Z</time>
      </trkpt>
      <trkpt lat="47.39431" lon="6.73538">
        <ele>484.1</ele>
        <time>2022-03-05T10:21:17.217Z</time>
      </trkpt>
      <trkpt lat="47.39513" lon="6.7353">
        <ele>484.4</ele>
        <time>2022-03-05T10:21:36.936Z</time>
      </trkpt>
      <trkpt lat="47.39586" lon="6.73561">
        <ele>487.7</ele>
        <time>2022-03-05T10:22:06.199Z</time>
      </trkpt>
      <trkpt lat="47.39636" lon="6.73621">
        <ele>493.2</ele>
        <time>2022-03-05T10:22:40.207Z</time>
      </trkpt>
      <trkpt lat="47.39685" lon="6.73665">
        <ele>493.5</ele>
        <time>2022-03-05T10:22:54.177Z</time>
      </trkpt>
      <trkpt lat="47.39743" lon="6.73727">
        <ele>500.6</ele>
        <time>2022-03-05T10:23:37.013Z</time>
      </trkpt>
      <trkpt lat="47.39762" lon="6.73722">
        <ele>502.7</ele>
        <time>2022-03-05T10:23:49.747Z</time>
      </trkpt>
      <trkpt lat="47.39793" lon="6.73665">
        <ele>500.6</ele>
        <time>2022-03-05T10:23:55.428Z</time>
      </trkpt>
      <trkpt lat="47.39818" lon="6.73641">
        <ele>501.7</ele>
        <time>2022-03-05T10:24:05.873Z</time>
      </trkpt>
      <trkpt lat="47.39854" lon="6.7365">
        <ele>502.9</ele>
        <time>2022-03-05T10:24:17.989Z</time>
      </trkpt>
      <trkpt lat="47.39871" lon="6.73692">
        <ele>507.3</ele>
        <time>2022-03-05T10:24:47.367Z</time>
      </trkpt>
      <trkpt lat="47.39888" lon="6.73771">
        <ele>515.2</ele>
        <time>2022-03-05T10:25:37.565Z</time>
      </trkpt>
      <trkpt lat="47.39929" lon="6.73902">
        <ele>528.9</ele>
        <time>2022-03-05T10:27:04.963Z</time>
      </trkpt>
      <trkpt lat="47.39961" lon="6.73954">
        <ele>533.1</ele>
        <time>2022-03-05T10:27:30.716Z</time>
      </trkpt>
      <trkpt lat="47.39993" lon="6.7398">
        <ele>535.3</ele>
        <time>2022-03-05T10:27:46.592Z</time>
      </trkpt>
      <trkpt lat="47.40041" lon="6.74102">
        <ele>539.1</ele>
        <time>2022-03-05T10:28:21.448Z</time>
      </trkpt>
      <trkpt lat="47.40082" lon="6.74268">
        <ele>536.3</ele>
        <time>2022-03-05T10:28:38.121Z</time>
      </trkpt>
      <trkpt lat="47.40107" lon="6.74327">
        <ele>535.7</ele>
        <time>2022-03-05T10:28:45.588Z</time>
      </trkpt>
      <trkpt lat="47.40107" lon="6.7432">
        <ele>535.7</ele>
        <time>2022-03-05T10:28:46.687Z</time>
      </trkpt>
      <trkpt lat="47.40197" lon="6.74402">
        <ele>538.5</ele>
        <time>2022-03-05T10:29:19.065Z</time>
      </trkpt>
      <trkpt lat="47.40275" lon="6.74472">
        <ele>537.9</ele>
        <time>2022-03-05T10:29:38.295Z</time>
      </trkpt>
      <trkpt lat="47.40327" lon="6.74507">
        <ele>538.5</ele>
        <time>2022-03-05T10:29:52.959Z</time>
      </trkpt>
      <trkpt lat="47.40361" lon="6.74518">
        <ele>539.3</ele>
        <time>2022-03-05T10:30:03.184Z</time>
      </trkpt>
      <trkpt lat="47.40397" lon="6.74509">
        <ele>538.3</ele>
        <time>2022-03-05T10:30:08.056Z</time>
      </trkpt>
      <trkpt lat="47.4042" lon="6.74497">
        <ele>538.1</ele>
        <time>2022-03-05T10:30:12.160Z</time>
      </trkpt>
      <trkpt lat="47.40465" lon="6.74484">
        <ele>538.5</ele>
        <time>2022-03-05T10:30:23.718Z</time>
      </trkpt>
      <trkpt lat="47.40483" lon="6.74489">
        <ele>539.2</ele>
        <time>2022-03-05T10:30:30.255Z</time>
      </trkpt>
      <trkpt lat="47.40497" lon="6.74518">
        <ele>538.4</ele>
        <time>2022-03-05T10:30:33.282Z</time>
      </trkpt>
      <trkpt lat="47.40517" lon="6.74573">
        <ele>537.3</ele>
        <time>2022-03-05T10:30:39.003Z</time>
      </trkpt>
      <trkpt lat="47.40565" lon="6.7468">
        <ele>542.6</ele>
        <time>2022-03-05T10:31:16.976Z</time>
      </trkpt>
      <trkpt lat="47.4061" lon="6.74815">
        <ele>545.9</ele>
        <time>2022-03-05T10:31:50.568Z</time>
      </trkpt>
      <trkpt lat="47.40667" lon="6.75003">
        <ele>544.9</ele>
        <time>2022-03-05T10:32:19.704Z</time>
      </trkpt>
      <trkpt lat="47.40768" lon="6.75315">
        <ele>539.1</ele>
        <time>2022-03-05T10:32:51.837Z</time>
      </trkpt>
      <trkpt lat="47.40822" lon="6.75373">
        <ele>538.2</ele>
        <time>2022-03-05T10:33:02.317Z</time>
      </trkpt>
      <trkpt lat="47.40855" lon="6.75496">
        <ele>536</ele>
        <time>2022-03-05T10:33:14.638Z</time>
      </trkpt>
      <trkpt lat="47.40864" lon="6.75567">
        <ele>534.9</ele>
        <time>2022-03-05T10:33:21.524Z</time>
      </trkpt>
      <trkpt lat="47.40849" lon="6.75631">
        <ele>533</ele>
        <time>2022-03-05T10:33:26.833Z</time>
      </trkpt>
      <trkpt lat="47.40857" lon="6.7566">
        <ele>533.7</ele>
        <time>2022-03-05T10:33:33.881Z</time>
      </trkpt>
      <trkpt lat="47.41028" lon="6.75427">
        <ele>551</ele>
        <time>2022-03-05T10:35:26.145Z</time>
      </trkpt>
      <trkpt lat="47.4113" lon="6.75286">
        <ele>558.6</ele>
        <time>2022-03-05T10:36:24.477Z</time>
      </trkpt>
      <trkpt lat="47.41273" lon="6.75183">
        <ele>555.3</ele>
        <time>2022-03-05T10:36:47.341Z</time>
      </trkpt>
      <trkpt lat="47.4138" lon="6.75168">
        <ele>546.7</ele>
        <time>2022-03-05T10:36:58.334Z</time>
      </trkpt>
      <trkpt lat="47.41505" lon="6.75166">
        <ele>538.8</ele>
        <time>2022-03-05T10:37:10.363Z</time>
      </trkpt>
      <trkpt lat="47.41667" lon="6.75113">
        <ele>541</ele>
        <time>2022-03-05T10:37:54.167Z</time>
      </trkpt>
      <trkpt lat="47.41744" lon="6.75052">
        <ele>546.8</ele>
        <time>2022-03-05T10:38:33.860Z</time>
      </trkpt>
      <trkpt lat="47.41775" lon="6.75056">
        <ele>547</ele>
        <time>2022-03-05T10:38:41.529Z</time>
      </trkpt>
      <trkpt lat="47.41861" lon="6.75141">
        <ele>546.9</ele>
        <time>2022-03-05T10:39:05.175Z</time>
      </trkpt>
      <trkpt lat="47.4194" lon="6.75195">
        <ele>547</ele>
        <time>2022-03-05T10:39:25.578Z</time>
      </trkpt>
      <trkpt lat="47.42005" lon="6.75293">
        <ele>547.9</ele>
        <time>2022-03-05T10:39:49.213Z</time>
      </trkpt>
      <trkpt lat="47.42067" lon="6.75432">
        <ele>548.9</ele>
        <time>2022-03-05T10:40:17.652Z</time>
      </trkpt>
      <trkpt lat="47.42095" lon="6.75477">
        <ele>548.4</ele>
        <time>2022-03-05T10:40:24.263Z</time>
      </trkpt>
      <trkpt lat="47.42212" lon="6.75508">
        <ele>541</ele>
        <time>2022-03-05T10:40:35.785Z</time>
      </trkpt>
      <trkpt lat="47.42273" lon="6.75512">
        <ele>533.6</ele>
        <time>2022-03-05T10:40:42.030Z</time>
      </trkpt>
      <trkpt lat="47.42332" lon="6.75488">
        <ele>528.6</ele>
        <time>2022-03-05T10:40:48.289Z</time>
      </trkpt>
      <trkpt lat="47.42381" lon="6.75464">
        <ele>523.5</ele>
        <time>2022-03-05T10:40:53.568Z</time>
      </trkpt>
      <trkpt lat="47.42424" lon="6.75464">
        <ele>519.5</ele>
        <time>2022-03-05T10:40:57.966Z</time>
      </trkpt>
      <trkpt lat="47.42469" lon="6.75462">
        <ele>515.7</ele>
        <time>2022-03-05T10:41:02.571Z</time>
      </trkpt>
      <trkpt lat="47.42572" lon="6.75474">
        <ele>513.5</ele>
        <time>2022-03-05T10:41:17.326Z</time>
      </trkpt>
      <trkpt lat="47.42606" lon="6.75479">
        <ele>514</ele>
        <time>2022-03-05T10:41:26.477Z</time>
      </trkpt>
      <trkpt lat="47.4269" lon="6.75536">
        <ele>519</ele>
        <time>2022-03-05T10:42:04.996Z</time>
      </trkpt>
      <trkpt lat="47.42731" lon="6.7553">
        <ele>521.8</ele>
        <time>2022-03-05T10:42:23.934Z</time>
      </trkpt>
      <trkpt lat="47.42777" lon="6.75511">
        <ele>523.8</ele>
        <time>2022-03-05T10:42:41.904Z</time>
      </trkpt>
      <trkpt lat="47.4285" lon="6.7552">
        <ele>522.8</ele>
        <time>2022-03-05T10:42:53.379Z</time>
      </trkpt>
      <trkpt lat="47.42913" lon="6.75532">
        <ele>519.5</ele>
        <time>2022-03-05T10:43:00.078Z</time>
      </trkpt>
      <trkpt lat="47.42992" lon="6.75598">
        <ele>514.7</ele>
        <time>2022-03-05T10:43:09.571Z</time>
      </trkpt>
      <trkpt lat="47.43086" lon="6.75643">
        <ele>510.1</ele>
        <time>2022-03-05T10:43:20.493Z</time>
      </trkpt>
      <trkpt lat="47.43253" lon="6.7577">
        <ele>500</ele>
        <time>2022-03-05T10:43:39.995Z</time>
      </trkpt>
      <trkpt lat="47.43401" lon="6.75906">
        <ele>484.9</ele>
        <time>2022-03-05T10:43:57.818Z</time>
      </trkpt>
      <trkpt lat="47.43473" lon="6.76">
        <ele>476.9</ele>
        <time>2022-03-05T10:44:07.642Z</time>
      </trkpt>
      <trkpt lat="47.43506" lon="6.7608">
        <ele>475.3</ele>
        <time>2022-03-05T10:44:16.299Z</time>
      </trkpt>
      <trkpt lat="47.43604" lon="6.76258">
        <ele>468.6</ele>
        <time>2022-03-05T10:44:33.998Z</time>
      </trkpt>
      <trkpt lat="47.43683" lon="6.76427">
        <ele>463.8</ele>
        <time>2022-03-05T10:44:51.208Z</time>
      </trkpt>
      <trkpt lat="47.4382" lon="6.76495">
        <ele>459.9</ele>
        <time>2022-03-05T10:45:10.572Z</time>
      </trkpt>
      <trkpt lat="47.43903" lon="6.76555">
        <ele>458</ele>
        <time>2022-03-05T10:45:23.878Z</time>
      </trkpt>
      <trkpt lat="47.44014" lon="6.76682">
        <ele>453.2</ele>
        <time>2022-03-05T10:45:41.322Z</time>
      </trkpt>
      <trkpt lat="47.44125" lon="6.76792">
        <ele>448.5</ele>
        <time>2022-03-05T10:45:57.768Z</time>
      </trkpt>
      <trkpt lat="47.44268" lon="6.76887">
        <ele>438.4</ele>
        <time>2022-03-05T10:46:12.711Z</time>
      </trkpt>
      <trkpt lat="47.44308" lon="6.7689">
        <ele>435.8</ele>
        <time>2022-03-05T10:46:16.514Z</time>
      </trkpt>
      <trkpt lat="47.44413" lon="6.76966">
        <ele>424.7</ele>
        <time>2022-03-05T10:46:28.470Z</time>
      </trkpt>
      <trkpt lat="47.44524" lon="6.76941">
        <ele>419.4</ele>
        <time>2022-03-05T10:46:40.811Z</time>
      </trkpt>
      <trkpt lat="47.44597" lon="6.76842">
        <ele>418.2</ele>
        <time>2022-03-05T10:46:56.635Z</time>
      </trkpt>
      <trkpt lat="47.44623" lon="6.76835">
        <ele>417.9</ele>
        <time>2022-03-05T10:47:00.899Z</time>
      </trkpt>
      <trkpt lat="47.44722" lon="6.76935">
        <ele>411.4</ele>
        <time>2022-03-05T10:47:13.303Z</time>
      </trkpt>
      <trkpt lat="47.44845" lon="6.77052">
        <ele>397.8</ele>
        <time>2022-03-05T10:47:28.261Z</time>
      </trkpt>
      <trkpt lat="47.44969" lon="6.77143">
        <ele>380.9</ele>
        <time>2022-03-05T10:47:42.419Z</time>
      </trkpt>
      <trkpt lat="47.4504" lon="6.77227">
        <ele>371.8</ele>
        <time>2022-03-05T10:47:51.719Z</time>
      </trkpt>
      <trkpt lat="47.45062" lon="6.77235">
        <ele>371</ele>
        <time>2022-03-05T10:47:54.503Z</time>
      </trkpt>
      <trkpt lat="47.45072" lon="6.77084">
        <ele>374.8</ele>
        <time>2022-03-05T10:48:30.518Z</time>
      </trkpt>
      <trkpt lat="47.45148" lon="6.7691">
        <ele>381.9</ele>
        <time>2022-03-05T10:49:27.583Z</time>
      </trkpt>
      <trkpt lat="47.4521" lon="6.76778">
        <ele>387</ele>
        <time>2022-03-05T10:50:10.789Z</time>
      </trkpt>
      <trkpt lat="47.45246" lon="6.76746">
        <ele>387.4</ele>
        <time>2022-03-05T10:50:21.462Z</time>
      </trkpt>
      <trkpt lat="47.45371" lon="6.76807">
        <ele>387.7</ele>
        <time>2022-03-05T10:50:52.642Z</time>
      </trkpt>
      <trkpt lat="47.45564" lon="6.76745">
        <ele>381.1</ele>
        <time>2022-03-05T10:51:17.382Z</time>
      </trkpt>
      <trkpt lat="47.45696" lon="6.76716">
        <ele>373.7</ele>
        <time>2022-03-05T10:51:31.047Z</time>
      </trkpt>
      <trkpt lat="47.45885" lon="6.76724">
        <ele>364.5</ele>
        <time>2022-03-05T10:51:51.564Z</time>
      </trkpt>
      <trkpt lat="47.46095" lon="6.76674">
        <ele>357.8</ele>
        <time>2022-03-05T10:52:18.736Z</time>
      </trkpt>
      <trkpt lat="47.4623" lon="6.76609">
        <ele>356.8</ele>
        <time>2022-03-05T10:52:48.457Z</time>
      </trkpt>
      <trkpt lat="47.46336" lon="6.76522">
        <ele>345.7</ele>
        <time>2022-03-05T10:53:00.856Z</time>
      </trkpt>
      <trkpt lat="47.46415" lon="6.76514">
        <ele>348.1</ele>
        <time>2022-03-05T10:53:26.280Z</time>
      </trkpt>
      <trkpt lat="47.46529" lon="6.76535">
        <ele>342.7</ele>
        <time>2022-03-05T10:53:38.929Z</time>
      </trkpt>
      <trkpt lat="47.46656" lon="6.76481">
        <ele>336.6</ele>
        <time>2022-03-05T10:53:53.588Z</time>
      </trkpt>
      <trkpt lat="47.46768" lon="6.76425">
        <ele>334.4</ele>
        <time>2022-03-05T10:54:11.012Z</time>
      </trkpt>
      <trkpt lat="47.46799" lon="6.76446">
        <ele>333</ele>
        <time>2022-03-05T10:54:14.976Z</time>
      </trkpt>
      <trkpt lat="47.46862" lon="6.76447">
        <ele>330</ele>
        <time>2022-03-05T10:54:21.876Z</time>
      </trkpt>
      <trkpt lat="47.46964" lon="6.76528">
        <ele>327.3</ele>
        <time>2022-03-05T10:54:38.030Z</time>
      </trkpt>
      <trkpt lat="47.47077" lon="6.76543">
        <ele>322.3</ele>
        <time>2022-03-05T10:54:50.857Z</time>
      </trkpt>
      <trkpt lat="47.47228" lon="6.76523">
        <ele>318</ele>
        <time>2022-03-05T10:55:10.872Z</time>
      </trkpt>
      <trkpt lat="47.47418" lon="6.76497">
        <ele>313</ele>
        <time>2022-03-05T10:55:36.659Z</time>
      </trkpt>
      <trkpt lat="47.47445" lon="6.76524">
        <ele>312.9</ele>
        <time>2022-03-05T10:55:43.878Z</time>
      </trkpt>
      <trkpt lat="47.47523" lon="6.76633">
        <ele>311.6</ele>
        <time>2022-03-05T10:56:01.018Z</time>
      </trkpt>
      <trkpt lat="47.47563" lon="6.7668">
        <ele>312</ele>
        <time>2022-03-05T10:56:13.781Z</time>
      </trkpt>
      <trkpt lat="47.47691" lon="6.7674">
        <ele>311.7</ele>
        <time>2022-03-05T10:56:43.893Z</time>
      </trkpt>
      <trkpt lat="47.4775" lon="6.76787">
        <ele>314</ele>
        <time>2022-03-05T10:57:06.562Z</time>
      </trkpt>
      <trkpt lat="47.47821" lon="6.76801">
        <ele>312.4</ele>
        <time>2022-03-05T10:57:16.669Z</time>
      </trkpt>
      <trkpt lat="47.47904" lon="6.76648">
        <ele>311.5</ele>
        <time>2022-03-05T10:57:44.526Z</time>
      </trkpt>
      <trkpt lat="47.47999" lon="6.76587">
        <ele>314.5</ele>
        <time>2022-03-05T10:58:17.221Z</time>
      </trkpt>
      <trkpt lat="47.48072" lon="6.76537">
        <ele>308.1</ele>
        <time>2022-03-05T10:58:25.448Z</time>
      </trkpt>
      <trkpt lat="47.4811" lon="6.76503">
        <ele>313.8</ele>
        <time>2022-03-05T10:59:02.460Z</time>
      </trkpt>
      <trkpt lat="47.48136" lon="6.76538">
        <ele>313</ele>
        <time>2022-03-05T10:59:07.396Z</time>
      </trkpt>
      <trkpt lat="47.48092" lon="6.76593">
        <ele>309.2</ele>
        <time>2022-03-05T10:59:12.822Z</time>
      </trkpt>
      <trkpt lat="47.48175" lon="6.76751">
        <ele>311.9</ele>
        <time>2022-03-05T10:59:51.210Z</time>
      </trkpt>
      <trkpt lat="47.48307" lon="6.76861">
        <ele>312</ele>
        <time>2022-03-05T11:00:26.561Z</time>
      </trkpt>
      <trkpt lat="47.48429" lon="6.76952">
        <ele>312.2</ele>
        <time>2022-03-05T11:00:58.680Z</time>
      </trkpt>
      <trkpt lat="47.48605" lon="6.77061">
        <ele>312</ele>
        <time>2022-03-05T11:01:42.232Z</time>
      </trkpt>
      <trkpt lat="47.48789" lon="6.77225">
        <ele>311.5</ele>
        <time>2022-03-05T11:02:30.337Z</time>
      </trkpt>
      <trkpt lat="47.48856" lon="6.77266">
        <ele>311.9</ele>
        <time>2022-03-05T11:02:48.048Z</time>
      </trkpt>
      <trkpt lat="47.48957" lon="6.77318">
        <ele>311.6</ele>
        <time>2022-03-05T11:03:11.828Z</time>
      </trkpt>
      <trkpt lat="47.49067" lon="6.7731">
        <ele>311.2</ele>
        <time>2022-03-05T11:03:36.026Z</time>
      </trkpt>
      <trkpt lat="47.49107" lon="6.77323">
        <ele>311.9</ele>
        <time>2022-03-05T11:03:47.288Z</time>
      </trkpt>
      <trkpt lat="47.49282" lon="6.77328">
        <ele>312</ele>
        <time>2022-03-05T11:04:28.098Z</time>
      </trkpt>
      <trkpt lat="47.49385" lon="6.77339">
        <ele>312</ele>
        <time>2022-03-05T11:04:52.050Z</time>
      </trkpt>
      <trkpt lat="47.49525" lon="6.77342">
        <ele>312</ele>
        <time>2022-03-05T11:05:24.524Z</time>
      </trkpt>
      <trkpt lat="47.49657" lon="6.77347">
        <ele>311.9</ele>
        <time>2022-03-05T11:05:54.799Z</time>
      </trkpt>
      <trkpt lat="47.49794" lon="6.77316">
        <ele>312.5</ele>
        <time>2022-03-05T11:06:28.271Z</time>
      </trkpt>
      <trkpt lat="47.49902" lon="6.77284">
        <ele>314.7</ele>
        <time>2022-03-05T11:06:59.538Z</time>
      </trkpt>
      <trkpt lat="47.50088" lon="6.77197">
        <ele>315.6</ele>
        <time>2022-03-05T11:07:46.778Z</time>
      </trkpt>
      <trkpt lat="47.50157" lon="6.77208">
        <ele>313.6</ele>
        <time>2022-03-05T11:07:55.896Z</time>
      </trkpt>
      <trkpt lat="47.50419" lon="6.77418">
        <ele>313.9</ele>
        <time>2022-03-05T11:09:05.643Z</time>
      </trkpt>
      <trkpt lat="47.50541" lon="6.77525">
        <ele>314</ele>
        <time>2022-03-05T11:09:38.747Z</time>
      </trkpt>
      <trkpt lat="47.50577" lon="6.77551">
        <ele>313.8</ele>
        <time>2022-03-05T11:09:47.377Z</time>
      </trkpt>
      <trkpt lat="47.506" lon="6.77544">
        <ele>314.2</ele>
        <time>2022-03-05T11:09:53.830Z</time>
      </trkpt>
      <trkpt lat="47.50599" lon="6.77526">
        <ele>314.5</ele>
        <time>2022-03-05T11:09:57.483Z</time>
      </trkpt>
      <trkpt lat="47.50728" lon="6.7754">
        <ele>314</ele>
        <time>2022-03-05T11:10:25.806Z</time>
      </trkpt>
      <trkpt lat="47.5081" lon="6.77612">
        <ele>313.8</ele>
        <time>2022-03-05T11:10:47.230Z</time>
      </trkpt>
      <trkpt lat="47.50891" lon="6.77726">
        <ele>314</ele>
        <time>2022-03-05T11:11:13.583Z</time>
      </trkpt>
      <trkpt lat="47.50978" lon="6.77691">
        <ele>315</ele>
        <time>2022-03-05T11:11:36.859Z</time>
      </trkpt>
      <trkpt lat="47.50997" lon="6.77711">
        <ele>315.5</ele>
        <time>2022-03-05T11:11:43.588Z</time>
      </trkpt>
      <trkpt lat="47.51074" lon="6.77773">
        <ele>317.7</ele>
        <time>2022-03-05T11:12:09.987Z</time>
      </trkpt>
      <trkpt lat="47.51076" lon="6.77767">
        <ele>317.7</ele>
        <time>2022-03-05T11:12:11.035Z</time>
      </trkpt>
      <trkpt lat="47.51197" lon="6.77781">
        <ele>325.2</ele>
        <time>2022-03-05T11:13:04.380Z</time>
      </trkpt>
      <trkpt lat="47.51334" lon="6.77775">
        <ele>339.3</ele>
        <time>2022-03-05T11:14:29.430Z</time>
      </trkpt>
      <trkpt lat="47.51517" lon="6.77725">
        <ele>361.2</ele>
        <time>2022-03-05T11:16:45.041Z</time>
      </trkpt>
      <trkpt lat="47.51589" lon="6.77715">
        <ele>373.2</ele>
        <time>2022-03-05T11:17:49.737Z</time>
      </trkpt>
      <trkpt lat="47.51598" lon="6.77743">
        <ele>370.6</ele>
        <time>2022-03-05T11:17:51.879Z</time>
      </trkpt>
      <trkpt lat="47.51702" lon="6.77747">
        <ele>381.7</ele>
        <time>2022-03-05T11:18:59.007Z</time>
      </trkpt>
      <trkpt lat="47.51712" lon="6.77558">
        <ele>392.2</ele>
        <time>2022-03-05T11:20:04.713Z</time>
      </trkpt>
      <trkpt lat="47.51726" lon="6.77462">
        <ele>391.5</ele>
        <time>2022-03-05T11:20:15.527Z</time>
      </trkpt>
      <trkpt lat="47.51852" lon="6.77508">
        <ele>388.7</ele>
        <time>2022-03-05T11:20:34.000Z</time>
      </trkpt>
    </trkseg>
  </trk>
</gpx>